<?xml version="1.0" encoding="UTF-8" standalone="no" ?>
<gpx xmlns="http://www.topografix.com/GPX/1/1" xmlns:xsi="http://www.w3.org/2001/XMLSchema-instance" xsi:schemaLocation="http://www.topografix.com/GPX/1/1 http://www.topografix.com/GPX/1/1/gpx.xsd" version="1.1" creator="VisuGPX - https://www.visugpx.com">
  <metadata>
    <name>Rando VTT avec Quentin</name>
    <desc><![CDATA[petite rando pour préparer l'enfer vert 2017]]></desc>
  </metadata>
  <trk>
    <name><![CDATA[2017-03-26 11:33:36]]></name>
    <trkseg>
      <trkpt lat="50.12469" lon="3.67828">
        <ele>140.97</ele>
        <time>2017-03-26T07:49:40Z</time>
      </trkpt>
      <trkpt lat="50.12469" lon="3.67828">
        <ele>140.97</ele>
        <time>2017-03-26T07:49:41Z</time>
      </trkpt>
      <trkpt lat="50.12469" lon="3.67829">
        <ele>140.97</ele>
        <time>2017-03-26T07:49:42Z</time>
      </trkpt>
      <trkpt lat="50.12469" lon="3.67828">
        <ele>140.97</ele>
        <time>2017-03-26T07:49:54Z</time>
      </trkpt>
      <trkpt lat="50.12473" lon="3.67826">
        <ele>140.97</ele>
        <time>2017-03-26T07:49:57Z</time>
      </trkpt>
      <trkpt lat="50.12476" lon="3.67823">
        <ele>140.97</ele>
        <time>2017-03-26T07:49:59Z</time>
      </trkpt>
      <trkpt lat="50.12478" lon="3.67814">
        <ele>140.97</ele>
        <time>2017-03-26T07:50:03Z</time>
      </trkpt>
      <trkpt lat="50.12472" lon="3.67799">
        <ele>140.97</ele>
        <time>2017-03-26T07:50:10Z</time>
      </trkpt>
      <trkpt lat="50.12461" lon="3.67806">
        <ele>140.97</ele>
        <time>2017-03-26T07:50:16Z</time>
      </trkpt>
      <trkpt lat="50.1246" lon="3.67808">
        <ele>140.97</ele>
        <time>2017-03-26T07:50:17Z</time>
      </trkpt>
      <trkpt lat="50.12458" lon="3.6781">
        <ele>140.97</ele>
        <time>2017-03-26T07:50:18Z</time>
      </trkpt>
      <trkpt lat="50.12431" lon="3.67828">
        <ele>140.49</ele>
        <time>2017-03-26T07:50:32Z</time>
      </trkpt>
      <trkpt lat="50.1239" lon="3.67866">
        <ele>140.49</ele>
        <time>2017-03-26T07:50:47Z</time>
      </trkpt>
      <trkpt lat="50.12351" lon="3.67906">
        <ele>140.49</ele>
        <time>2017-03-26T07:51:03Z</time>
      </trkpt>
      <trkpt lat="50.1233" lon="3.67931">
        <ele>140.49</ele>
        <time>2017-03-26T07:51:12Z</time>
      </trkpt>
      <trkpt lat="50.12338" lon="3.67964">
        <ele>140.49</ele>
        <time>2017-03-26T07:51:21Z</time>
      </trkpt>
      <trkpt lat="50.12335" lon="3.68019">
        <ele>140.49</ele>
        <time>2017-03-26T07:51:36Z</time>
      </trkpt>
      <trkpt lat="50.12326" lon="3.68067">
        <ele>140.49</ele>
        <time>2017-03-26T07:51:52Z</time>
      </trkpt>
      <trkpt lat="50.12325" lon="3.68072">
        <ele>140.49</ele>
        <time>2017-03-26T07:51:54Z</time>
      </trkpt>
      <trkpt lat="50.12323" lon="3.68082">
        <ele>140.49</ele>
        <time>2017-03-26T07:51:58Z</time>
      </trkpt>
      <trkpt lat="50.1232" lon="3.68093">
        <ele>140.49</ele>
        <time>2017-03-26T07:52:03Z</time>
      </trkpt>
      <trkpt lat="50.12315" lon="3.6812">
        <ele>140.49</ele>
        <time>2017-03-26T07:52:18Z</time>
      </trkpt>
      <trkpt lat="50.12313" lon="3.68128">
        <ele>140.49</ele>
        <time>2017-03-26T07:52:30Z</time>
      </trkpt>
      <trkpt lat="50.12312" lon="3.68131">
        <ele>140.01</ele>
        <time>2017-03-26T07:52:48Z</time>
      </trkpt>
      <trkpt lat="50.12306" lon="3.6817">
        <ele>140.01</ele>
        <time>2017-03-26T07:53:03Z</time>
      </trkpt>
      <trkpt lat="50.12295" lon="3.68203">
        <ele>140.01</ele>
        <time>2017-03-26T07:53:17Z</time>
      </trkpt>
      <trkpt lat="50.12292" lon="3.68212">
        <ele>140.97</ele>
        <time>2017-03-26T07:53:27Z</time>
      </trkpt>
      <trkpt lat="50.12288" lon="3.68213">
        <ele>140.49</ele>
        <time>2017-03-26T07:53:37Z</time>
      </trkpt>
      <trkpt lat="50.12267" lon="3.68187">
        <ele>140.97</ele>
        <time>2017-03-26T07:53:49Z</time>
      </trkpt>
      <trkpt lat="50.12221" lon="3.68121">
        <ele>140.97</ele>
        <time>2017-03-26T07:54:11Z</time>
      </trkpt>
      <trkpt lat="50.12184" lon="3.68072">
        <ele>141.45</ele>
        <time>2017-03-26T07:54:28Z</time>
      </trkpt>
      <trkpt lat="50.12129" lon="3.67999">
        <ele>141.45</ele>
        <time>2017-03-26T07:54:52Z</time>
      </trkpt>
      <trkpt lat="50.12078" lon="3.67931">
        <ele>140.01</ele>
        <time>2017-03-26T07:55:12Z</time>
      </trkpt>
      <trkpt lat="50.12039" lon="3.67878">
        <ele>140.01</ele>
        <time>2017-03-26T07:55:29Z</time>
      </trkpt>
      <trkpt lat="50.1202" lon="3.67853">
        <ele>140.01</ele>
        <time>2017-03-26T07:55:42Z</time>
      </trkpt>
      <trkpt lat="50.11997" lon="3.67824">
        <ele>139.53</ele>
        <time>2017-03-26T07:55:56Z</time>
      </trkpt>
      <trkpt lat="50.11974" lon="3.6779">
        <ele>139.53</ele>
        <time>2017-03-26T07:56:10Z</time>
      </trkpt>
      <trkpt lat="50.11942" lon="3.67747">
        <ele>139.53</ele>
        <time>2017-03-26T07:56:26Z</time>
      </trkpt>
      <trkpt lat="50.11904" lon="3.67697">
        <ele>139.05</ele>
        <time>2017-03-26T07:56:43Z</time>
      </trkpt>
      <trkpt lat="50.11856" lon="3.67634">
        <ele>139.05</ele>
        <time>2017-03-26T07:57:02Z</time>
      </trkpt>
      <trkpt lat="50.11809" lon="3.67567">
        <ele>138.57</ele>
        <time>2017-03-26T07:57:18Z</time>
      </trkpt>
      <trkpt lat="50.11759" lon="3.67498">
        <ele>138.57</ele>
        <time>2017-03-26T07:57:35Z</time>
      </trkpt>
      <trkpt lat="50.11721" lon="3.67445">
        <ele>138.57</ele>
        <time>2017-03-26T07:57:50Z</time>
      </trkpt>
      <trkpt lat="50.1169" lon="3.67404">
        <ele>138.57</ele>
        <time>2017-03-26T07:58:04Z</time>
      </trkpt>
      <trkpt lat="50.11648" lon="3.67345">
        <ele>138.57</ele>
        <time>2017-03-26T07:58:23Z</time>
      </trkpt>
      <trkpt lat="50.11616" lon="3.67306">
        <ele>139.53</ele>
        <time>2017-03-26T07:58:37Z</time>
      </trkpt>
      <trkpt lat="50.11577" lon="3.67254">
        <ele>139.53</ele>
        <time>2017-03-26T07:58:54Z</time>
      </trkpt>
      <trkpt lat="50.11537" lon="3.67198">
        <ele>139.53</ele>
        <time>2017-03-26T07:59:13Z</time>
      </trkpt>
      <trkpt lat="50.11501" lon="3.67151">
        <ele>139.53</ele>
        <time>2017-03-26T07:59:31Z</time>
      </trkpt>
      <trkpt lat="50.11469" lon="3.67106">
        <ele>139.53</ele>
        <time>2017-03-26T07:59:48Z</time>
      </trkpt>
      <trkpt lat="50.11442" lon="3.6707">
        <ele>139.05</ele>
        <time>2017-03-26T08:00:03Z</time>
      </trkpt>
      <trkpt lat="50.1142" lon="3.6704">
        <ele>139.05</ele>
        <time>2017-03-26T08:00:15Z</time>
      </trkpt>
      <trkpt lat="50.11379" lon="3.66984">
        <ele>139.05</ele>
        <time>2017-03-26T08:00:34Z</time>
      </trkpt>
      <trkpt lat="50.11341" lon="3.66933">
        <ele>139.05</ele>
        <time>2017-03-26T08:00:53Z</time>
      </trkpt>
      <trkpt lat="50.11312" lon="3.66892">
        <ele>139.05</ele>
        <time>2017-03-26T08:01:09Z</time>
      </trkpt>
      <trkpt lat="50.11287" lon="3.6685">
        <ele>139.05</ele>
        <time>2017-03-26T08:01:23Z</time>
      </trkpt>
      <trkpt lat="50.11264" lon="3.66804">
        <ele>139.05</ele>
        <time>2017-03-26T08:01:40Z</time>
      </trkpt>
      <trkpt lat="50.11245" lon="3.66757">
        <ele>139.05</ele>
        <time>2017-03-26T08:01:56Z</time>
      </trkpt>
      <trkpt lat="50.11224" lon="3.66707">
        <ele>139.05</ele>
        <time>2017-03-26T08:02:12Z</time>
      </trkpt>
      <trkpt lat="50.11223" lon="3.66706">
        <ele>139.05</ele>
        <time>2017-03-26T08:02:24Z</time>
      </trkpt>
      <trkpt lat="50.11223" lon="3.66708">
        <ele>139.05</ele>
        <time>2017-03-26T08:02:55Z</time>
      </trkpt>
      <trkpt lat="50.11218" lon="3.66691">
        <ele>139.05</ele>
        <time>2017-03-26T08:03:07Z</time>
      </trkpt>
      <trkpt lat="50.11198" lon="3.6664">
        <ele>139.05</ele>
        <time>2017-03-26T08:03:22Z</time>
      </trkpt>
      <trkpt lat="50.11169" lon="3.66564">
        <ele>139.05</ele>
        <time>2017-03-26T08:03:43Z</time>
      </trkpt>
      <trkpt lat="50.11144" lon="3.66503">
        <ele>139.05</ele>
        <time>2017-03-26T08:04:01Z</time>
      </trkpt>
      <trkpt lat="50.11116" lon="3.66436">
        <ele>139.05</ele>
        <time>2017-03-26T08:04:19Z</time>
      </trkpt>
      <trkpt lat="50.11088" lon="3.66362">
        <ele>139.05</ele>
        <time>2017-03-26T08:04:37Z</time>
      </trkpt>
      <trkpt lat="50.11077" lon="3.66277">
        <ele>139.05</ele>
        <time>2017-03-26T08:04:56Z</time>
      </trkpt>
      <trkpt lat="50.1109" lon="3.66187">
        <ele>138.57</ele>
        <time>2017-03-26T08:05:17Z</time>
      </trkpt>
      <trkpt lat="50.11113" lon="3.66134">
        <ele>138.57</ele>
        <time>2017-03-26T08:05:33Z</time>
      </trkpt>
      <trkpt lat="50.11138" lon="3.66083">
        <ele>138.57</ele>
        <time>2017-03-26T08:05:49Z</time>
      </trkpt>
      <trkpt lat="50.11167" lon="3.66022">
        <ele>138.57</ele>
        <time>2017-03-26T08:06:08Z</time>
      </trkpt>
      <trkpt lat="50.11203" lon="3.65949">
        <ele>138.57</ele>
        <time>2017-03-26T08:06:29Z</time>
      </trkpt>
      <trkpt lat="50.11233" lon="3.65887">
        <ele>138.57</ele>
        <time>2017-03-26T08:06:45Z</time>
      </trkpt>
      <trkpt lat="50.11257" lon="3.65837">
        <ele>138.57</ele>
        <time>2017-03-26T08:06:59Z</time>
      </trkpt>
      <trkpt lat="50.11278" lon="3.65794">
        <ele>138.57</ele>
        <time>2017-03-26T08:07:13Z</time>
      </trkpt>
      <trkpt lat="50.11307" lon="3.65734">
        <ele>138.57</ele>
        <time>2017-03-26T08:07:32Z</time>
      </trkpt>
      <trkpt lat="50.11333" lon="3.6568">
        <ele>138.57</ele>
        <time>2017-03-26T08:07:51Z</time>
      </trkpt>
      <trkpt lat="50.11361" lon="3.65621">
        <ele>138.57</ele>
        <time>2017-03-26T08:08:10Z</time>
      </trkpt>
      <trkpt lat="50.11389" lon="3.65565">
        <ele>138.57</ele>
        <time>2017-03-26T08:08:28Z</time>
      </trkpt>
      <trkpt lat="50.1141" lon="3.65512">
        <ele>138.57</ele>
        <time>2017-03-26T08:08:44Z</time>
      </trkpt>
      <trkpt lat="50.11421" lon="3.65446">
        <ele>138.09</ele>
        <time>2017-03-26T08:09:02Z</time>
      </trkpt>
      <trkpt lat="50.11419" lon="3.65384">
        <ele>138.09</ele>
        <time>2017-03-26T08:09:18Z</time>
      </trkpt>
      <trkpt lat="50.11407" lon="3.65325">
        <ele>138.09</ele>
        <time>2017-03-26T08:09:34Z</time>
      </trkpt>
      <trkpt lat="50.11391" lon="3.65281">
        <ele>138.09</ele>
        <time>2017-03-26T08:09:50Z</time>
      </trkpt>
      <trkpt lat="50.1137" lon="3.65234">
        <ele>138.09</ele>
        <time>2017-03-26T08:10:06Z</time>
      </trkpt>
      <trkpt lat="50.11342" lon="3.65183">
        <ele>138.09</ele>
        <time>2017-03-26T08:10:23Z</time>
      </trkpt>
      <trkpt lat="50.1132" lon="3.65149">
        <ele>138.09</ele>
        <time>2017-03-26T08:10:35Z</time>
      </trkpt>
      <trkpt lat="50.11319" lon="3.65147">
        <ele>138.09</ele>
        <time>2017-03-26T08:10:36Z</time>
      </trkpt>
      <trkpt lat="50.1129" lon="3.65099">
        <ele>138.09</ele>
        <time>2017-03-26T08:10:54Z</time>
      </trkpt>
      <trkpt lat="50.1126" lon="3.6505">
        <ele>138.09</ele>
        <time>2017-03-26T08:11:11Z</time>
      </trkpt>
      <trkpt lat="50.11236" lon="3.65011">
        <ele>138.09</ele>
        <time>2017-03-26T08:11:26Z</time>
      </trkpt>
      <trkpt lat="50.11212" lon="3.6497">
        <ele>138.09</ele>
        <time>2017-03-26T08:11:42Z</time>
      </trkpt>
      <trkpt lat="50.11189" lon="3.64934">
        <ele>138.09</ele>
        <time>2017-03-26T08:11:58Z</time>
      </trkpt>
      <trkpt lat="50.11159" lon="3.64886">
        <ele>138.57</ele>
        <time>2017-03-26T08:12:17Z</time>
      </trkpt>
      <trkpt lat="50.11133" lon="3.64844">
        <ele>138.57</ele>
        <time>2017-03-26T08:12:34Z</time>
      </trkpt>
      <trkpt lat="50.11114" lon="3.64812">
        <ele>138.57</ele>
        <time>2017-03-26T08:12:46Z</time>
      </trkpt>
      <trkpt lat="50.11086" lon="3.64767">
        <ele>138.57</ele>
        <time>2017-03-26T08:13:02Z</time>
      </trkpt>
      <trkpt lat="50.11057" lon="3.64718">
        <ele>138.57</ele>
        <time>2017-03-26T08:13:19Z</time>
      </trkpt>
      <trkpt lat="50.11028" lon="3.64685">
        <ele>138.57</ele>
        <time>2017-03-26T08:13:35Z</time>
      </trkpt>
      <trkpt lat="50.1101" lon="3.64669">
        <ele>138.57</ele>
        <time>2017-03-26T08:13:44Z</time>
      </trkpt>
      <trkpt lat="50.11009" lon="3.64667">
        <ele>138.57</ele>
        <time>2017-03-26T08:13:45Z</time>
      </trkpt>
      <trkpt lat="50.11007" lon="3.64665">
        <ele>138.57</ele>
        <time>2017-03-26T08:13:46Z</time>
      </trkpt>
      <trkpt lat="50.11004" lon="3.64664">
        <ele>138.57</ele>
        <time>2017-03-26T08:13:47Z</time>
      </trkpt>
      <trkpt lat="50.11002" lon="3.64662">
        <ele>138.57</ele>
        <time>2017-03-26T08:13:48Z</time>
      </trkpt>
      <trkpt lat="50.11" lon="3.64661">
        <ele>138.57</ele>
        <time>2017-03-26T08:13:49Z</time>
      </trkpt>
      <trkpt lat="50.10975" lon="3.64641">
        <ele>138.57</ele>
        <time>2017-03-26T08:14:01Z</time>
      </trkpt>
      <trkpt lat="50.10931" lon="3.64601">
        <ele>138.57</ele>
        <time>2017-03-26T08:14:20Z</time>
      </trkpt>
      <trkpt lat="50.10902" lon="3.64575">
        <ele>138.57</ele>
        <time>2017-03-26T08:14:33Z</time>
      </trkpt>
      <trkpt lat="50.10861" lon="3.6454">
        <ele>138.57</ele>
        <time>2017-03-26T08:14:50Z</time>
      </trkpt>
      <trkpt lat="50.10826" lon="3.6451">
        <ele>138.57</ele>
        <time>2017-03-26T08:15:06Z</time>
      </trkpt>
      <trkpt lat="50.10786" lon="3.64476">
        <ele>138.57</ele>
        <time>2017-03-26T08:15:23Z</time>
      </trkpt>
      <trkpt lat="50.10746" lon="3.64443">
        <ele>138.57</ele>
        <time>2017-03-26T08:15:40Z</time>
      </trkpt>
      <trkpt lat="50.10729" lon="3.64426">
        <ele>138.57</ele>
        <time>2017-03-26T08:15:50Z</time>
      </trkpt>
      <trkpt lat="50.10741" lon="3.64383">
        <ele>137.61</ele>
        <time>2017-03-26T08:16:00Z</time>
      </trkpt>
      <trkpt lat="50.10751" lon="3.64338">
        <ele>138.57</ele>
        <time>2017-03-26T08:16:13Z</time>
      </trkpt>
      <trkpt lat="50.10758" lon="3.64284">
        <ele>139.05</ele>
        <time>2017-03-26T08:16:28Z</time>
      </trkpt>
      <trkpt lat="50.10758" lon="3.64281">
        <ele>139.05</ele>
        <time>2017-03-26T08:16:29Z</time>
      </trkpt>
      <trkpt lat="50.10765" lon="3.64279">
        <ele>139.53</ele>
        <time>2017-03-26T08:16:41Z</time>
      </trkpt>
      <trkpt lat="50.10766" lon="3.64278">
        <ele>139.05</ele>
        <time>2017-03-26T08:17:12Z</time>
      </trkpt>
      <trkpt lat="50.10765" lon="3.6428">
        <ele>139.05</ele>
        <time>2017-03-26T08:17:52Z</time>
      </trkpt>
      <trkpt lat="50.10764" lon="3.6428">
        <ele>139.05</ele>
        <time>2017-03-26T08:18:31Z</time>
      </trkpt>
      <trkpt lat="50.10765" lon="3.64279">
        <ele>139.05</ele>
        <time>2017-03-26T08:19:04Z</time>
      </trkpt>
      <trkpt lat="50.10765" lon="3.6428">
        <ele>138.57</ele>
        <time>2017-03-26T08:19:45Z</time>
      </trkpt>
      <trkpt lat="50.10765" lon="3.64278">
        <ele>138.57</ele>
        <time>2017-03-26T08:20:12Z</time>
      </trkpt>
      <trkpt lat="50.10765" lon="3.64279">
        <ele>138.57</ele>
        <time>2017-03-26T08:20:46Z</time>
      </trkpt>
      <trkpt lat="50.10764" lon="3.64277">
        <ele>138.57</ele>
        <time>2017-03-26T08:21:16Z</time>
      </trkpt>
      <trkpt lat="50.10765" lon="3.64278">
        <ele>138.57</ele>
        <time>2017-03-26T08:21:49Z</time>
      </trkpt>
      <trkpt lat="50.10766" lon="3.64278">
        <ele>138.57</ele>
        <time>2017-03-26T08:22:19Z</time>
      </trkpt>
      <trkpt lat="50.10765" lon="3.64278">
        <ele>138.57</ele>
        <time>2017-03-26T08:22:52Z</time>
      </trkpt>
      <trkpt lat="50.10764" lon="3.6428">
        <ele>138.09</ele>
        <time>2017-03-26T08:23:29Z</time>
      </trkpt>
      <trkpt lat="50.10771" lon="3.64289">
        <ele>137.13</ele>
        <time>2017-03-26T08:23:34Z</time>
      </trkpt>
      <trkpt lat="50.10797" lon="3.64286">
        <ele>137.13</ele>
        <time>2017-03-26T08:23:45Z</time>
      </trkpt>
      <trkpt lat="50.10819" lon="3.643">
        <ele>136.16</ele>
        <time>2017-03-26T08:23:56Z</time>
      </trkpt>
      <trkpt lat="50.10823" lon="3.64294">
        <ele>136.16</ele>
        <time>2017-03-26T08:24:00Z</time>
      </trkpt>
      <trkpt lat="50.10811" lon="3.64225">
        <ele>136.16</ele>
        <time>2017-03-26T08:24:19Z</time>
      </trkpt>
      <trkpt lat="50.10806" lon="3.64186">
        <ele>136.16</ele>
        <time>2017-03-26T08:24:31Z</time>
      </trkpt>
      <trkpt lat="50.10802" lon="3.6414">
        <ele>136.16</ele>
        <time>2017-03-26T08:24:45Z</time>
      </trkpt>
      <trkpt lat="50.10805" lon="3.64085">
        <ele>135.68</ele>
        <time>2017-03-26T08:25:00Z</time>
      </trkpt>
      <trkpt lat="50.10813" lon="3.64038">
        <ele>135.68</ele>
        <time>2017-03-26T08:25:16Z</time>
      </trkpt>
      <trkpt lat="50.10818" lon="3.64">
        <ele>135.68</ele>
        <time>2017-03-26T08:25:29Z</time>
      </trkpt>
      <trkpt lat="50.10822" lon="3.63961">
        <ele>135.68</ele>
        <time>2017-03-26T08:25:42Z</time>
      </trkpt>
      <trkpt lat="50.10834" lon="3.63909">
        <ele>135.68</ele>
        <time>2017-03-26T08:25:58Z</time>
      </trkpt>
      <trkpt lat="50.10834" lon="3.63901">
        <ele>135.68</ele>
        <time>2017-03-26T08:26:09Z</time>
      </trkpt>
      <trkpt lat="50.10835" lon="3.63902">
        <ele>135.68</ele>
        <time>2017-03-26T08:26:29Z</time>
      </trkpt>
      <trkpt lat="50.10835" lon="3.63897">
        <ele>135.68</ele>
        <time>2017-03-26T08:26:56Z</time>
      </trkpt>
      <trkpt lat="50.10839" lon="3.63884">
        <ele>135.68</ele>
        <time>2017-03-26T08:27:04Z</time>
      </trkpt>
      <trkpt lat="50.10863" lon="3.63873">
        <ele>135.68</ele>
        <time>2017-03-26T08:27:20Z</time>
      </trkpt>
      <trkpt lat="50.10865" lon="3.63873">
        <ele>135.68</ele>
        <time>2017-03-26T08:27:21Z</time>
      </trkpt>
      <trkpt lat="50.10872" lon="3.63867">
        <ele>135.68</ele>
        <time>2017-03-26T08:27:26Z</time>
      </trkpt>
      <trkpt lat="50.10879" lon="3.63864">
        <ele>136.64</ele>
        <time>2017-03-26T08:27:30Z</time>
      </trkpt>
      <trkpt lat="50.10914" lon="3.63844">
        <ele>138.57</ele>
        <time>2017-03-26T08:27:46Z</time>
      </trkpt>
      <trkpt lat="50.10947" lon="3.63832">
        <ele>140.97</ele>
        <time>2017-03-26T08:28:03Z</time>
      </trkpt>
      <trkpt lat="50.10977" lon="3.63823">
        <ele>141.45</ele>
        <time>2017-03-26T08:28:15Z</time>
      </trkpt>
      <trkpt lat="50.10988" lon="3.63821">
        <ele>140.01</ele>
        <time>2017-03-26T08:28:18Z</time>
      </trkpt>
      <trkpt lat="50.11025" lon="3.63821">
        <ele>140.01</ele>
        <time>2017-03-26T08:28:32Z</time>
      </trkpt>
      <trkpt lat="50.11071" lon="3.63825">
        <ele>142.41</ele>
        <time>2017-03-26T08:28:49Z</time>
      </trkpt>
      <trkpt lat="50.11097" lon="3.63827">
        <ele>143.85</ele>
        <time>2017-03-26T08:29:01Z</time>
      </trkpt>
      <trkpt lat="50.111" lon="3.63825">
        <ele>144.34</ele>
        <time>2017-03-26T08:29:03Z</time>
      </trkpt>
      <trkpt lat="50.11101" lon="3.63822">
        <ele>144.34</ele>
        <time>2017-03-26T08:29:04Z</time>
      </trkpt>
      <trkpt lat="50.11102" lon="3.6382">
        <ele>144.34</ele>
        <time>2017-03-26T08:29:05Z</time>
      </trkpt>
      <trkpt lat="50.11104" lon="3.63817">
        <ele>144.34</ele>
        <time>2017-03-26T08:29:06Z</time>
      </trkpt>
      <trkpt lat="50.11105" lon="3.63815">
        <ele>144.34</ele>
        <time>2017-03-26T08:29:07Z</time>
      </trkpt>
      <trkpt lat="50.11111" lon="3.63808">
        <ele>143.85</ele>
        <time>2017-03-26T08:29:13Z</time>
      </trkpt>
      <trkpt lat="50.11111" lon="3.63806">
        <ele>144.34</ele>
        <time>2017-03-26T08:29:14Z</time>
      </trkpt>
      <trkpt lat="50.11109" lon="3.63801">
        <ele>144.34</ele>
        <time>2017-03-26T08:29:25Z</time>
      </trkpt>
      <trkpt lat="50.11108" lon="3.63794">
        <ele>144.34</ele>
        <time>2017-03-26T08:29:44Z</time>
      </trkpt>
      <trkpt lat="50.11107" lon="3.63787">
        <ele>144.34</ele>
        <time>2017-03-26T08:29:52Z</time>
      </trkpt>
      <trkpt lat="50.11107" lon="3.63784">
        <ele>144.34</ele>
        <time>2017-03-26T08:29:53Z</time>
      </trkpt>
      <trkpt lat="50.11106" lon="3.6378">
        <ele>144.34</ele>
        <time>2017-03-26T08:29:54Z</time>
      </trkpt>
      <trkpt lat="50.11105" lon="3.63741">
        <ele>144.34</ele>
        <time>2017-03-26T08:30:06Z</time>
      </trkpt>
      <trkpt lat="50.11102" lon="3.63713">
        <ele>144.34</ele>
        <time>2017-03-26T08:30:16Z</time>
      </trkpt>
      <trkpt lat="50.111" lon="3.63675">
        <ele>143.37</ele>
        <time>2017-03-26T08:30:27Z</time>
      </trkpt>
      <trkpt lat="50.111" lon="3.6367">
        <ele>143.37</ele>
        <time>2017-03-26T08:30:28Z</time>
      </trkpt>
      <trkpt lat="50.11099" lon="3.63666">
        <ele>143.37</ele>
        <time>2017-03-26T08:30:29Z</time>
      </trkpt>
      <trkpt lat="50.11099" lon="3.63663">
        <ele>143.37</ele>
        <time>2017-03-26T08:30:30Z</time>
      </trkpt>
      <trkpt lat="50.11098" lon="3.63661">
        <ele>143.37</ele>
        <time>2017-03-26T08:30:31Z</time>
      </trkpt>
      <trkpt lat="50.11098" lon="3.63658">
        <ele>143.37</ele>
        <time>2017-03-26T08:30:32Z</time>
      </trkpt>
      <trkpt lat="50.11098" lon="3.63656">
        <ele>143.37</ele>
        <time>2017-03-26T08:30:33Z</time>
      </trkpt>
      <trkpt lat="50.11098" lon="3.63653">
        <ele>142.89</ele>
        <time>2017-03-26T08:30:34Z</time>
      </trkpt>
      <trkpt lat="50.11098" lon="3.63649">
        <ele>142.89</ele>
        <time>2017-03-26T08:30:35Z</time>
      </trkpt>
      <trkpt lat="50.11098" lon="3.63645">
        <ele>142.89</ele>
        <time>2017-03-26T08:30:36Z</time>
      </trkpt>
      <trkpt lat="50.111" lon="3.63594">
        <ele>142.41</ele>
        <time>2017-03-26T08:30:48Z</time>
      </trkpt>
      <trkpt lat="50.11101" lon="3.63549">
        <ele>142.41</ele>
        <time>2017-03-26T08:31:01Z</time>
      </trkpt>
      <trkpt lat="50.11096" lon="3.6351">
        <ele>141.93</ele>
        <time>2017-03-26T08:31:11Z</time>
      </trkpt>
      <trkpt lat="50.11079" lon="3.6347">
        <ele>140.97</ele>
        <time>2017-03-26T08:31:21Z</time>
      </trkpt>
      <trkpt lat="50.11053" lon="3.63407">
        <ele>139.05</ele>
        <time>2017-03-26T08:31:33Z</time>
      </trkpt>
      <trkpt lat="50.11029" lon="3.63351">
        <ele>138.09</ele>
        <time>2017-03-26T08:31:44Z</time>
      </trkpt>
      <trkpt lat="50.1102" lon="3.63324">
        <ele>137.61</ele>
        <time>2017-03-26T08:31:52Z</time>
      </trkpt>
      <trkpt lat="50.11019" lon="3.63321">
        <ele>137.61</ele>
        <time>2017-03-26T08:31:53Z</time>
      </trkpt>
      <trkpt lat="50.11019" lon="3.63318">
        <ele>137.61</ele>
        <time>2017-03-26T08:31:54Z</time>
      </trkpt>
      <trkpt lat="50.11019" lon="3.63315">
        <ele>137.13</ele>
        <time>2017-03-26T08:31:55Z</time>
      </trkpt>
      <trkpt lat="50.11018" lon="3.63312">
        <ele>137.13</ele>
        <time>2017-03-26T08:31:56Z</time>
      </trkpt>
      <trkpt lat="50.11017" lon="3.63308">
        <ele>137.13</ele>
        <time>2017-03-26T08:31:57Z</time>
      </trkpt>
      <trkpt lat="50.11016" lon="3.63304">
        <ele>137.13</ele>
        <time>2017-03-26T08:31:58Z</time>
      </trkpt>
      <trkpt lat="50.11008" lon="3.6327">
        <ele>136.64</ele>
        <time>2017-03-26T08:32:08Z</time>
      </trkpt>
      <trkpt lat="50.11002" lon="3.63229">
        <ele>136.64</ele>
        <time>2017-03-26T08:32:19Z</time>
      </trkpt>
      <trkpt lat="50.10999" lon="3.63196">
        <ele>136.16</ele>
        <time>2017-03-26T08:32:26Z</time>
      </trkpt>
      <trkpt lat="50.10999" lon="3.63193">
        <ele>136.16</ele>
        <time>2017-03-26T08:32:27Z</time>
      </trkpt>
      <trkpt lat="50.11" lon="3.6319">
        <ele>136.16</ele>
        <time>2017-03-26T08:32:28Z</time>
      </trkpt>
      <trkpt lat="50.11" lon="3.63186">
        <ele>136.16</ele>
        <time>2017-03-26T08:32:29Z</time>
      </trkpt>
      <trkpt lat="50.11001" lon="3.63182">
        <ele>135.68</ele>
        <time>2017-03-26T08:32:30Z</time>
      </trkpt>
      <trkpt lat="50.11001" lon="3.63177">
        <ele>135.68</ele>
        <time>2017-03-26T08:32:31Z</time>
      </trkpt>
      <trkpt lat="50.11" lon="3.63151">
        <ele>135.68</ele>
        <time>2017-03-26T08:32:38Z</time>
      </trkpt>
      <trkpt lat="50.10999" lon="3.63147">
        <ele>135.68</ele>
        <time>2017-03-26T08:32:39Z</time>
      </trkpt>
      <trkpt lat="50.10999" lon="3.63144">
        <ele>135.68</ele>
        <time>2017-03-26T08:32:40Z</time>
      </trkpt>
      <trkpt lat="50.10998" lon="3.6314">
        <ele>135.68</ele>
        <time>2017-03-26T08:32:41Z</time>
      </trkpt>
      <trkpt lat="50.10998" lon="3.63136">
        <ele>135.68</ele>
        <time>2017-03-26T08:32:42Z</time>
      </trkpt>
      <trkpt lat="50.10996" lon="3.63102">
        <ele>136.64</ele>
        <time>2017-03-26T08:32:52Z</time>
      </trkpt>
      <trkpt lat="50.10997" lon="3.63096">
        <ele>136.64</ele>
        <time>2017-03-26T08:32:54Z</time>
      </trkpt>
      <trkpt lat="50.10996" lon="3.63093">
        <ele>136.64</ele>
        <time>2017-03-26T08:32:55Z</time>
      </trkpt>
      <trkpt lat="50.10997" lon="3.6309">
        <ele>136.64</ele>
        <time>2017-03-26T08:32:56Z</time>
      </trkpt>
      <trkpt lat="50.10997" lon="3.63086">
        <ele>136.64</ele>
        <time>2017-03-26T08:32:57Z</time>
      </trkpt>
      <trkpt lat="50.10997" lon="3.63083">
        <ele>136.64</ele>
        <time>2017-03-26T08:32:58Z</time>
      </trkpt>
      <trkpt lat="50.10998" lon="3.63079">
        <ele>136.64</ele>
        <time>2017-03-26T08:32:59Z</time>
      </trkpt>
      <trkpt lat="50.10998" lon="3.63076">
        <ele>136.64</ele>
        <time>2017-03-26T08:33:00Z</time>
      </trkpt>
      <trkpt lat="50.10997" lon="3.63073">
        <ele>136.64</ele>
        <time>2017-03-26T08:33:01Z</time>
      </trkpt>
      <trkpt lat="50.10997" lon="3.6307">
        <ele>136.64</ele>
        <time>2017-03-26T08:33:02Z</time>
      </trkpt>
      <trkpt lat="50.10998" lon="3.63067">
        <ele>136.64</ele>
        <time>2017-03-26T08:33:03Z</time>
      </trkpt>
      <trkpt lat="50.10998" lon="3.63064">
        <ele>136.64</ele>
        <time>2017-03-26T08:33:04Z</time>
      </trkpt>
      <trkpt lat="50.11001" lon="3.63028">
        <ele>137.13</ele>
        <time>2017-03-26T08:33:16Z</time>
      </trkpt>
      <trkpt lat="50.11004" lon="3.63012">
        <ele>137.13</ele>
        <time>2017-03-26T08:33:21Z</time>
      </trkpt>
      <trkpt lat="50.11005" lon="3.63009">
        <ele>137.13</ele>
        <time>2017-03-26T08:33:22Z</time>
      </trkpt>
      <trkpt lat="50.11006" lon="3.63006">
        <ele>137.13</ele>
        <time>2017-03-26T08:33:23Z</time>
      </trkpt>
      <trkpt lat="50.11007" lon="3.63003">
        <ele>137.13</ele>
        <time>2017-03-26T08:33:24Z</time>
      </trkpt>
      <trkpt lat="50.11008" lon="3.63">
        <ele>137.13</ele>
        <time>2017-03-26T08:33:25Z</time>
      </trkpt>
      <trkpt lat="50.11008" lon="3.62997">
        <ele>137.13</ele>
        <time>2017-03-26T08:33:26Z</time>
      </trkpt>
      <trkpt lat="50.11009" lon="3.62994">
        <ele>137.13</ele>
        <time>2017-03-26T08:33:27Z</time>
      </trkpt>
      <trkpt lat="50.1101" lon="3.6299">
        <ele>137.13</ele>
        <time>2017-03-26T08:33:28Z</time>
      </trkpt>
      <trkpt lat="50.11011" lon="3.62986">
        <ele>137.13</ele>
        <time>2017-03-26T08:33:29Z</time>
      </trkpt>
      <trkpt lat="50.11011" lon="3.62983">
        <ele>137.13</ele>
        <time>2017-03-26T08:33:30Z</time>
      </trkpt>
      <trkpt lat="50.11012" lon="3.6298">
        <ele>137.13</ele>
        <time>2017-03-26T08:33:31Z</time>
      </trkpt>
      <trkpt lat="50.11013" lon="3.62976">
        <ele>137.13</ele>
        <time>2017-03-26T08:33:32Z</time>
      </trkpt>
      <trkpt lat="50.11025" lon="3.62936">
        <ele>137.13</ele>
        <time>2017-03-26T08:33:44Z</time>
      </trkpt>
      <trkpt lat="50.11028" lon="3.62927">
        <ele>137.13</ele>
        <time>2017-03-26T08:33:47Z</time>
      </trkpt>
      <trkpt lat="50.11029" lon="3.62924">
        <ele>137.13</ele>
        <time>2017-03-26T08:33:48Z</time>
      </trkpt>
      <trkpt lat="50.1103" lon="3.62921">
        <ele>137.13</ele>
        <time>2017-03-26T08:33:49Z</time>
      </trkpt>
      <trkpt lat="50.11031" lon="3.62917">
        <ele>137.13</ele>
        <time>2017-03-26T08:33:50Z</time>
      </trkpt>
      <trkpt lat="50.11031" lon="3.62913">
        <ele>137.13</ele>
        <time>2017-03-26T08:33:51Z</time>
      </trkpt>
      <trkpt lat="50.11032" lon="3.62909">
        <ele>137.13</ele>
        <time>2017-03-26T08:33:52Z</time>
      </trkpt>
      <trkpt lat="50.11033" lon="3.62906">
        <ele>137.13</ele>
        <time>2017-03-26T08:33:53Z</time>
      </trkpt>
      <trkpt lat="50.11035" lon="3.62903">
        <ele>137.13</ele>
        <time>2017-03-26T08:33:54Z</time>
      </trkpt>
      <trkpt lat="50.11035" lon="3.629">
        <ele>137.13</ele>
        <time>2017-03-26T08:33:55Z</time>
      </trkpt>
      <trkpt lat="50.11036" lon="3.62898">
        <ele>137.13</ele>
        <time>2017-03-26T08:33:56Z</time>
      </trkpt>
      <trkpt lat="50.11036" lon="3.62896">
        <ele>137.13</ele>
        <time>2017-03-26T08:33:57Z</time>
      </trkpt>
      <trkpt lat="50.11038" lon="3.62881">
        <ele>136.16</ele>
        <time>2017-03-26T08:34:01Z</time>
      </trkpt>
      <trkpt lat="50.11038" lon="3.62877">
        <ele>136.16</ele>
        <time>2017-03-26T08:34:02Z</time>
      </trkpt>
      <trkpt lat="50.1103" lon="3.62841">
        <ele>135.68</ele>
        <time>2017-03-26T08:34:13Z</time>
      </trkpt>
      <trkpt lat="50.11029" lon="3.62836">
        <ele>135.68</ele>
        <time>2017-03-26T08:34:15Z</time>
      </trkpt>
      <trkpt lat="50.11029" lon="3.62834">
        <ele>135.68</ele>
        <time>2017-03-26T08:34:16Z</time>
      </trkpt>
      <trkpt lat="50.11024" lon="3.62809">
        <ele>135.68</ele>
        <time>2017-03-26T08:34:26Z</time>
      </trkpt>
      <trkpt lat="50.11024" lon="3.62807">
        <ele>135.68</ele>
        <time>2017-03-26T08:34:27Z</time>
      </trkpt>
      <trkpt lat="50.11024" lon="3.62805">
        <ele>135.68</ele>
        <time>2017-03-26T08:34:28Z</time>
      </trkpt>
      <trkpt lat="50.11023" lon="3.62802">
        <ele>135.68</ele>
        <time>2017-03-26T08:34:29Z</time>
      </trkpt>
      <trkpt lat="50.11023" lon="3.628">
        <ele>135.68</ele>
        <time>2017-03-26T08:34:30Z</time>
      </trkpt>
      <trkpt lat="50.11022" lon="3.62797">
        <ele>135.68</ele>
        <time>2017-03-26T08:34:31Z</time>
      </trkpt>
      <trkpt lat="50.11021" lon="3.62794">
        <ele>135.68</ele>
        <time>2017-03-26T08:34:32Z</time>
      </trkpt>
      <trkpt lat="50.11021" lon="3.62791">
        <ele>135.68</ele>
        <time>2017-03-26T08:34:33Z</time>
      </trkpt>
      <trkpt lat="50.1102" lon="3.62788">
        <ele>135.68</ele>
        <time>2017-03-26T08:34:34Z</time>
      </trkpt>
      <trkpt lat="50.11019" lon="3.62785">
        <ele>135.68</ele>
        <time>2017-03-26T08:34:35Z</time>
      </trkpt>
      <trkpt lat="50.11018" lon="3.62782">
        <ele>135.68</ele>
        <time>2017-03-26T08:34:36Z</time>
      </trkpt>
      <trkpt lat="50.11017" lon="3.62778">
        <ele>135.68</ele>
        <time>2017-03-26T08:34:37Z</time>
      </trkpt>
      <trkpt lat="50.11013" lon="3.6277">
        <ele>135.68</ele>
        <time>2017-03-26T08:34:40Z</time>
      </trkpt>
      <trkpt lat="50.11013" lon="3.62768">
        <ele>135.68</ele>
        <time>2017-03-26T08:34:41Z</time>
      </trkpt>
      <trkpt lat="50.11012" lon="3.62766">
        <ele>135.68</ele>
        <time>2017-03-26T08:34:42Z</time>
      </trkpt>
      <trkpt lat="50.11011" lon="3.62762">
        <ele>135.68</ele>
        <time>2017-03-26T08:34:43Z</time>
      </trkpt>
      <trkpt lat="50.1101" lon="3.6276">
        <ele>135.68</ele>
        <time>2017-03-26T08:34:44Z</time>
      </trkpt>
      <trkpt lat="50.11008" lon="3.62757">
        <ele>135.68</ele>
        <time>2017-03-26T08:34:45Z</time>
      </trkpt>
      <trkpt lat="50.11007" lon="3.62755">
        <ele>135.68</ele>
        <time>2017-03-26T08:34:46Z</time>
      </trkpt>
      <trkpt lat="50.11006" lon="3.62752">
        <ele>135.68</ele>
        <time>2017-03-26T08:34:47Z</time>
      </trkpt>
      <trkpt lat="50.10997" lon="3.62722">
        <ele>135.68</ele>
        <time>2017-03-26T08:34:57Z</time>
      </trkpt>
      <trkpt lat="50.10999" lon="3.62692">
        <ele>135.68</ele>
        <time>2017-03-26T08:35:06Z</time>
      </trkpt>
      <trkpt lat="50.10999" lon="3.62689">
        <ele>135.68</ele>
        <time>2017-03-26T08:35:07Z</time>
      </trkpt>
      <trkpt lat="50.11006" lon="3.62654">
        <ele>135.68</ele>
        <time>2017-03-26T08:35:18Z</time>
      </trkpt>
      <trkpt lat="50.11011" lon="3.62611">
        <ele>136.16</ele>
        <time>2017-03-26T08:35:31Z</time>
      </trkpt>
      <trkpt lat="50.11011" lon="3.62607">
        <ele>136.16</ele>
        <time>2017-03-26T08:35:32Z</time>
      </trkpt>
      <trkpt lat="50.11011" lon="3.62602">
        <ele>136.16</ele>
        <time>2017-03-26T08:35:33Z</time>
      </trkpt>
      <trkpt lat="50.11012" lon="3.62598">
        <ele>136.16</ele>
        <time>2017-03-26T08:35:34Z</time>
      </trkpt>
      <trkpt lat="50.11012" lon="3.62594">
        <ele>136.16</ele>
        <time>2017-03-26T08:35:35Z</time>
      </trkpt>
      <trkpt lat="50.11013" lon="3.62591">
        <ele>136.16</ele>
        <time>2017-03-26T08:35:36Z</time>
      </trkpt>
      <trkpt lat="50.11015" lon="3.62588">
        <ele>136.16</ele>
        <time>2017-03-26T08:35:37Z</time>
      </trkpt>
      <trkpt lat="50.11016" lon="3.62585">
        <ele>137.13</ele>
        <time>2017-03-26T08:35:38Z</time>
      </trkpt>
      <trkpt lat="50.11018" lon="3.62581">
        <ele>137.13</ele>
        <time>2017-03-26T08:35:40Z</time>
      </trkpt>
      <trkpt lat="50.11019" lon="3.62578">
        <ele>137.13</ele>
        <time>2017-03-26T08:35:41Z</time>
      </trkpt>
      <trkpt lat="50.1102" lon="3.62576">
        <ele>137.13</ele>
        <time>2017-03-26T08:35:42Z</time>
      </trkpt>
      <trkpt lat="50.11021" lon="3.62573">
        <ele>137.13</ele>
        <time>2017-03-26T08:35:43Z</time>
      </trkpt>
      <trkpt lat="50.11024" lon="3.62558">
        <ele>137.13</ele>
        <time>2017-03-26T08:35:49Z</time>
      </trkpt>
      <trkpt lat="50.11025" lon="3.62555">
        <ele>137.13</ele>
        <time>2017-03-26T08:35:50Z</time>
      </trkpt>
      <trkpt lat="50.11026" lon="3.62552">
        <ele>137.13</ele>
        <time>2017-03-26T08:35:51Z</time>
      </trkpt>
      <trkpt lat="50.11026" lon="3.62548">
        <ele>137.13</ele>
        <time>2017-03-26T08:35:52Z</time>
      </trkpt>
      <trkpt lat="50.11026" lon="3.62545">
        <ele>137.13</ele>
        <time>2017-03-26T08:35:53Z</time>
      </trkpt>
      <trkpt lat="50.11026" lon="3.62541">
        <ele>137.13</ele>
        <time>2017-03-26T08:35:54Z</time>
      </trkpt>
      <trkpt lat="50.11026" lon="3.62539">
        <ele>137.13</ele>
        <time>2017-03-26T08:35:55Z</time>
      </trkpt>
      <trkpt lat="50.11027" lon="3.62536">
        <ele>137.13</ele>
        <time>2017-03-26T08:35:56Z</time>
      </trkpt>
      <trkpt lat="50.11027" lon="3.62534">
        <ele>137.13</ele>
        <time>2017-03-26T08:35:57Z</time>
      </trkpt>
      <trkpt lat="50.11026" lon="3.62526">
        <ele>137.13</ele>
        <time>2017-03-26T08:35:59Z</time>
      </trkpt>
      <trkpt lat="50.11028" lon="3.62514">
        <ele>137.13</ele>
        <time>2017-03-26T08:36:03Z</time>
      </trkpt>
      <trkpt lat="50.11029" lon="3.62511">
        <ele>137.13</ele>
        <time>2017-03-26T08:36:04Z</time>
      </trkpt>
      <trkpt lat="50.11029" lon="3.62508">
        <ele>137.13</ele>
        <time>2017-03-26T08:36:05Z</time>
      </trkpt>
      <trkpt lat="50.11038" lon="3.62473">
        <ele>137.13</ele>
        <time>2017-03-26T08:36:18Z</time>
      </trkpt>
      <trkpt lat="50.11041" lon="3.62447">
        <ele>137.13</ele>
        <time>2017-03-26T08:36:26Z</time>
      </trkpt>
      <trkpt lat="50.1104" lon="3.62444">
        <ele>137.13</ele>
        <time>2017-03-26T08:36:27Z</time>
      </trkpt>
      <trkpt lat="50.1104" lon="3.6244">
        <ele>137.13</ele>
        <time>2017-03-26T08:36:28Z</time>
      </trkpt>
      <trkpt lat="50.11041" lon="3.62437">
        <ele>137.13</ele>
        <time>2017-03-26T08:36:29Z</time>
      </trkpt>
      <trkpt lat="50.11041" lon="3.62434">
        <ele>137.61</ele>
        <time>2017-03-26T08:36:30Z</time>
      </trkpt>
      <trkpt lat="50.11042" lon="3.62432">
        <ele>137.61</ele>
        <time>2017-03-26T08:36:31Z</time>
      </trkpt>
      <trkpt lat="50.11042" lon="3.62429">
        <ele>137.61</ele>
        <time>2017-03-26T08:36:32Z</time>
      </trkpt>
      <trkpt lat="50.11043" lon="3.62427">
        <ele>137.61</ele>
        <time>2017-03-26T08:36:33Z</time>
      </trkpt>
      <trkpt lat="50.11048" lon="3.62413">
        <ele>137.61</ele>
        <time>2017-03-26T08:36:38Z</time>
      </trkpt>
      <trkpt lat="50.11048" lon="3.62411">
        <ele>137.61</ele>
        <time>2017-03-26T08:36:39Z</time>
      </trkpt>
      <trkpt lat="50.11049" lon="3.62408">
        <ele>137.61</ele>
        <time>2017-03-26T08:36:40Z</time>
      </trkpt>
      <trkpt lat="50.1105" lon="3.62405">
        <ele>137.61</ele>
        <time>2017-03-26T08:36:41Z</time>
      </trkpt>
      <trkpt lat="50.1105" lon="3.62401">
        <ele>137.61</ele>
        <time>2017-03-26T08:36:43Z</time>
      </trkpt>
      <trkpt lat="50.11053" lon="3.62374">
        <ele>137.61</ele>
        <time>2017-03-26T08:36:54Z</time>
      </trkpt>
      <trkpt lat="50.11053" lon="3.62365">
        <ele>137.61</ele>
        <time>2017-03-26T08:36:57Z</time>
      </trkpt>
      <trkpt lat="50.11054" lon="3.62362">
        <ele>137.61</ele>
        <time>2017-03-26T08:36:58Z</time>
      </trkpt>
      <trkpt lat="50.11055" lon="3.62358">
        <ele>137.61</ele>
        <time>2017-03-26T08:36:59Z</time>
      </trkpt>
      <trkpt lat="50.11056" lon="3.62347">
        <ele>137.61</ele>
        <time>2017-03-26T08:37:03Z</time>
      </trkpt>
      <trkpt lat="50.11056" lon="3.62344">
        <ele>137.61</ele>
        <time>2017-03-26T08:37:04Z</time>
      </trkpt>
      <trkpt lat="50.11057" lon="3.62342">
        <ele>137.61</ele>
        <time>2017-03-26T08:37:05Z</time>
      </trkpt>
      <trkpt lat="50.11058" lon="3.62339">
        <ele>137.61</ele>
        <time>2017-03-26T08:37:06Z</time>
      </trkpt>
      <trkpt lat="50.11058" lon="3.62337">
        <ele>137.61</ele>
        <time>2017-03-26T08:37:07Z</time>
      </trkpt>
      <trkpt lat="50.11058" lon="3.62334">
        <ele>137.61</ele>
        <time>2017-03-26T08:37:08Z</time>
      </trkpt>
      <trkpt lat="50.11058" lon="3.62332">
        <ele>137.61</ele>
        <time>2017-03-26T08:37:09Z</time>
      </trkpt>
      <trkpt lat="50.11058" lon="3.62329">
        <ele>137.61</ele>
        <time>2017-03-26T08:37:10Z</time>
      </trkpt>
      <trkpt lat="50.11058" lon="3.62327">
        <ele>137.61</ele>
        <time>2017-03-26T08:37:11Z</time>
      </trkpt>
      <trkpt lat="50.11059" lon="3.62323">
        <ele>137.61</ele>
        <time>2017-03-26T08:37:12Z</time>
      </trkpt>
      <trkpt lat="50.1106" lon="3.6232">
        <ele>137.61</ele>
        <time>2017-03-26T08:37:13Z</time>
      </trkpt>
      <trkpt lat="50.11067" lon="3.62293">
        <ele>138.57</ele>
        <time>2017-03-26T08:37:23Z</time>
      </trkpt>
      <trkpt lat="50.11068" lon="3.6229">
        <ele>138.57</ele>
        <time>2017-03-26T08:37:24Z</time>
      </trkpt>
      <trkpt lat="50.11068" lon="3.62287">
        <ele>138.57</ele>
        <time>2017-03-26T08:37:25Z</time>
      </trkpt>
      <trkpt lat="50.11071" lon="3.62279">
        <ele>138.57</ele>
        <time>2017-03-26T08:37:28Z</time>
      </trkpt>
      <trkpt lat="50.11071" lon="3.62277">
        <ele>138.57</ele>
        <time>2017-03-26T08:37:29Z</time>
      </trkpt>
      <trkpt lat="50.11071" lon="3.62275">
        <ele>138.57</ele>
        <time>2017-03-26T08:37:30Z</time>
      </trkpt>
      <trkpt lat="50.1107" lon="3.62273">
        <ele>138.57</ele>
        <time>2017-03-26T08:37:31Z</time>
      </trkpt>
      <trkpt lat="50.1107" lon="3.6227">
        <ele>138.57</ele>
        <time>2017-03-26T08:37:32Z</time>
      </trkpt>
      <trkpt lat="50.11069" lon="3.62268">
        <ele>138.57</ele>
        <time>2017-03-26T08:37:33Z</time>
      </trkpt>
      <trkpt lat="50.11067" lon="3.62265">
        <ele>138.57</ele>
        <time>2017-03-26T08:37:34Z</time>
      </trkpt>
      <trkpt lat="50.11057" lon="3.62245">
        <ele>138.57</ele>
        <time>2017-03-26T08:37:44Z</time>
      </trkpt>
      <trkpt lat="50.11051" lon="3.6224">
        <ele>138.57</ele>
        <time>2017-03-26T08:37:47Z</time>
      </trkpt>
      <trkpt lat="50.11045" lon="3.62234">
        <ele>138.57</ele>
        <time>2017-03-26T08:37:59Z</time>
      </trkpt>
      <trkpt lat="50.11038" lon="3.62227">
        <ele>138.57</ele>
        <time>2017-03-26T08:38:17Z</time>
      </trkpt>
      <trkpt lat="50.11036" lon="3.62225">
        <ele>138.57</ele>
        <time>2017-03-26T08:38:25Z</time>
      </trkpt>
      <trkpt lat="50.11032" lon="3.62222">
        <ele>139.05</ele>
        <time>2017-03-26T08:38:28Z</time>
      </trkpt>
      <trkpt lat="50.11028" lon="3.62224">
        <ele>139.05</ele>
        <time>2017-03-26T08:38:30Z</time>
      </trkpt>
      <trkpt lat="50.11026" lon="3.62226">
        <ele>139.05</ele>
        <time>2017-03-26T08:38:31Z</time>
      </trkpt>
      <trkpt lat="50.11025" lon="3.62228">
        <ele>139.05</ele>
        <time>2017-03-26T08:38:32Z</time>
      </trkpt>
      <trkpt lat="50.11025" lon="3.62231">
        <ele>139.05</ele>
        <time>2017-03-26T08:38:33Z</time>
      </trkpt>
      <trkpt lat="50.11024" lon="3.62234">
        <ele>139.05</ele>
        <time>2017-03-26T08:38:34Z</time>
      </trkpt>
      <trkpt lat="50.11025" lon="3.62237">
        <ele>139.05</ele>
        <time>2017-03-26T08:38:35Z</time>
      </trkpt>
      <trkpt lat="50.11025" lon="3.6224">
        <ele>139.05</ele>
        <time>2017-03-26T08:38:36Z</time>
      </trkpt>
      <trkpt lat="50.11024" lon="3.62243">
        <ele>139.05</ele>
        <time>2017-03-26T08:38:37Z</time>
      </trkpt>
      <trkpt lat="50.11024" lon="3.62246">
        <ele>139.05</ele>
        <time>2017-03-26T08:38:38Z</time>
      </trkpt>
      <trkpt lat="50.11024" lon="3.62249">
        <ele>139.05</ele>
        <time>2017-03-26T08:38:39Z</time>
      </trkpt>
      <trkpt lat="50.11022" lon="3.62257">
        <ele>139.05</ele>
        <time>2017-03-26T08:38:42Z</time>
      </trkpt>
      <trkpt lat="50.1102" lon="3.62258">
        <ele>139.05</ele>
        <time>2017-03-26T08:38:43Z</time>
      </trkpt>
      <trkpt lat="50.11019" lon="3.62259">
        <ele>139.05</ele>
        <time>2017-03-26T08:38:44Z</time>
      </trkpt>
      <trkpt lat="50.11017" lon="3.62259">
        <ele>139.05</ele>
        <time>2017-03-26T08:38:45Z</time>
      </trkpt>
      <trkpt lat="50.11015" lon="3.6226">
        <ele>139.05</ele>
        <time>2017-03-26T08:38:46Z</time>
      </trkpt>
      <trkpt lat="50.11013" lon="3.62261">
        <ele>139.05</ele>
        <time>2017-03-26T08:38:47Z</time>
      </trkpt>
      <trkpt lat="50.11011" lon="3.62262">
        <ele>139.05</ele>
        <time>2017-03-26T08:38:48Z</time>
      </trkpt>
      <trkpt lat="50.11009" lon="3.62262">
        <ele>139.05</ele>
        <time>2017-03-26T08:38:49Z</time>
      </trkpt>
      <trkpt lat="50.10986" lon="3.62263">
        <ele>139.53</ele>
        <time>2017-03-26T08:39:00Z</time>
      </trkpt>
      <trkpt lat="50.10984" lon="3.62264">
        <ele>139.53</ele>
        <time>2017-03-26T08:39:01Z</time>
      </trkpt>
      <trkpt lat="50.10982" lon="3.62263">
        <ele>140.01</ele>
        <time>2017-03-26T08:39:02Z</time>
      </trkpt>
      <trkpt lat="50.1098" lon="3.62263">
        <ele>140.01</ele>
        <time>2017-03-26T08:39:03Z</time>
      </trkpt>
      <trkpt lat="50.10969" lon="3.62264">
        <ele>140.49</ele>
        <time>2017-03-26T08:39:09Z</time>
      </trkpt>
      <trkpt lat="50.10966" lon="3.62265">
        <ele>140.97</ele>
        <time>2017-03-26T08:39:11Z</time>
      </trkpt>
      <trkpt lat="50.10965" lon="3.62265">
        <ele>140.97</ele>
        <time>2017-03-26T08:39:12Z</time>
      </trkpt>
      <trkpt lat="50.10963" lon="3.62265">
        <ele>140.97</ele>
        <time>2017-03-26T08:39:13Z</time>
      </trkpt>
      <trkpt lat="50.10961" lon="3.62265">
        <ele>141.45</ele>
        <time>2017-03-26T08:39:14Z</time>
      </trkpt>
      <trkpt lat="50.10958" lon="3.62265">
        <ele>141.45</ele>
        <time>2017-03-26T08:39:15Z</time>
      </trkpt>
      <trkpt lat="50.10957" lon="3.62265">
        <ele>141.45</ele>
        <time>2017-03-26T08:39:16Z</time>
      </trkpt>
      <trkpt lat="50.10955" lon="3.62264">
        <ele>141.45</ele>
        <time>2017-03-26T08:39:17Z</time>
      </trkpt>
      <trkpt lat="50.10953" lon="3.62265">
        <ele>141.93</ele>
        <time>2017-03-26T08:39:18Z</time>
      </trkpt>
      <trkpt lat="50.10951" lon="3.62265">
        <ele>141.93</ele>
        <time>2017-03-26T08:39:19Z</time>
      </trkpt>
      <trkpt lat="50.10949" lon="3.62265">
        <ele>141.93</ele>
        <time>2017-03-26T08:39:20Z</time>
      </trkpt>
      <trkpt lat="50.10931" lon="3.62263">
        <ele>143.37</ele>
        <time>2017-03-26T08:39:31Z</time>
      </trkpt>
      <trkpt lat="50.1093" lon="3.62263">
        <ele>143.37</ele>
        <time>2017-03-26T08:39:32Z</time>
      </trkpt>
      <trkpt lat="50.10926" lon="3.62263">
        <ele>143.37</ele>
        <time>2017-03-26T08:39:35Z</time>
      </trkpt>
      <trkpt lat="50.10905" lon="3.62263">
        <ele>144.34</ele>
        <time>2017-03-26T08:39:47Z</time>
      </trkpt>
      <trkpt lat="50.1088" lon="3.62264">
        <ele>145.78</ele>
        <time>2017-03-26T08:39:57Z</time>
      </trkpt>
      <trkpt lat="50.10853" lon="3.62265">
        <ele>146.74</ele>
        <time>2017-03-26T08:40:07Z</time>
      </trkpt>
      <trkpt lat="50.10823" lon="3.62265">
        <ele>147.22</ele>
        <time>2017-03-26T08:40:17Z</time>
      </trkpt>
      <trkpt lat="50.10801" lon="3.62259">
        <ele>147.7</ele>
        <time>2017-03-26T08:40:28Z</time>
      </trkpt>
      <trkpt lat="50.10781" lon="3.6224">
        <ele>148.18</ele>
        <time>2017-03-26T08:40:39Z</time>
      </trkpt>
      <trkpt lat="50.1078" lon="3.62238">
        <ele>148.18</ele>
        <time>2017-03-26T08:40:40Z</time>
      </trkpt>
      <trkpt lat="50.10778" lon="3.62236">
        <ele>148.18</ele>
        <time>2017-03-26T08:40:41Z</time>
      </trkpt>
      <trkpt lat="50.10754" lon="3.62202">
        <ele>149.14</ele>
        <time>2017-03-26T08:40:54Z</time>
      </trkpt>
      <trkpt lat="50.10747" lon="3.62193">
        <ele>149.14</ele>
        <time>2017-03-26T08:40:58Z</time>
      </trkpt>
      <trkpt lat="50.10745" lon="3.62191">
        <ele>149.14</ele>
        <time>2017-03-26T08:40:59Z</time>
      </trkpt>
      <trkpt lat="50.10744" lon="3.62189">
        <ele>149.14</ele>
        <time>2017-03-26T08:41:00Z</time>
      </trkpt>
      <trkpt lat="50.10726" lon="3.62166">
        <ele>149.14</ele>
        <time>2017-03-26T08:41:10Z</time>
      </trkpt>
      <trkpt lat="50.10723" lon="3.62166">
        <ele>149.14</ele>
        <time>2017-03-26T08:41:11Z</time>
      </trkpt>
      <trkpt lat="50.10719" lon="3.62166">
        <ele>149.14</ele>
        <time>2017-03-26T08:41:12Z</time>
      </trkpt>
      <trkpt lat="50.10717" lon="3.62167">
        <ele>149.14</ele>
        <time>2017-03-26T08:41:13Z</time>
      </trkpt>
      <trkpt lat="50.10714" lon="3.62169">
        <ele>149.14</ele>
        <time>2017-03-26T08:41:14Z</time>
      </trkpt>
      <trkpt lat="50.10712" lon="3.62171">
        <ele>149.14</ele>
        <time>2017-03-26T08:41:15Z</time>
      </trkpt>
      <trkpt lat="50.10687" lon="3.62212">
        <ele>149.14</ele>
        <time>2017-03-26T08:41:28Z</time>
      </trkpt>
      <trkpt lat="50.10668" lon="3.62248">
        <ele>147.7</ele>
        <time>2017-03-26T08:41:38Z</time>
      </trkpt>
      <trkpt lat="50.10645" lon="3.62287">
        <ele>146.74</ele>
        <time>2017-03-26T08:41:51Z</time>
      </trkpt>
      <trkpt lat="50.10614" lon="3.62345">
        <ele>145.3</ele>
        <time>2017-03-26T08:42:06Z</time>
      </trkpt>
      <trkpt lat="50.10588" lon="3.624">
        <ele>144.82</ele>
        <time>2017-03-26T08:42:20Z</time>
      </trkpt>
      <trkpt lat="50.10576" lon="3.62425">
        <ele>144.82</ele>
        <time>2017-03-26T08:42:28Z</time>
      </trkpt>
      <trkpt lat="50.10575" lon="3.62427">
        <ele>144.82</ele>
        <time>2017-03-26T08:42:29Z</time>
      </trkpt>
      <trkpt lat="50.10575" lon="3.62429">
        <ele>144.82</ele>
        <time>2017-03-26T08:42:30Z</time>
      </trkpt>
      <trkpt lat="50.10574" lon="3.62432">
        <ele>144.82</ele>
        <time>2017-03-26T08:42:32Z</time>
      </trkpt>
      <trkpt lat="50.10574" lon="3.6243">
        <ele>144.34</ele>
        <time>2017-03-26T08:42:44Z</time>
      </trkpt>
      <trkpt lat="50.10579" lon="3.62431">
        <ele>144.34</ele>
        <time>2017-03-26T08:43:18Z</time>
      </trkpt>
      <trkpt lat="50.10577" lon="3.62431">
        <ele>144.34</ele>
        <time>2017-03-26T08:43:53Z</time>
      </trkpt>
      <trkpt lat="50.10579" lon="3.62432">
        <ele>144.34</ele>
        <time>2017-03-26T08:44:25Z</time>
      </trkpt>
      <trkpt lat="50.10576" lon="3.62433">
        <ele>144.34</ele>
        <time>2017-03-26T08:44:57Z</time>
      </trkpt>
      <trkpt lat="50.10577" lon="3.6243">
        <ele>144.34</ele>
        <time>2017-03-26T08:45:46Z</time>
      </trkpt>
      <trkpt lat="50.10576" lon="3.62429">
        <ele>144.34</ele>
        <time>2017-03-26T08:46:19Z</time>
      </trkpt>
      <trkpt lat="50.10576" lon="3.62429">
        <ele>143.85</ele>
        <time>2017-03-26T08:46:46Z</time>
      </trkpt>
      <trkpt lat="50.10577" lon="3.62425">
        <ele>143.85</ele>
        <time>2017-03-26T08:47:21Z</time>
      </trkpt>
      <trkpt lat="50.10579" lon="3.62422">
        <ele>143.85</ele>
        <time>2017-03-26T08:47:55Z</time>
      </trkpt>
      <trkpt lat="50.10576" lon="3.62426">
        <ele>143.85</ele>
        <time>2017-03-26T08:48:27Z</time>
      </trkpt>
      <trkpt lat="50.10577" lon="3.6243">
        <ele>143.37</ele>
        <time>2017-03-26T08:49:00Z</time>
      </trkpt>
      <trkpt lat="50.10575" lon="3.62431">
        <ele>143.37</ele>
        <time>2017-03-26T08:49:10Z</time>
      </trkpt>
      <trkpt lat="50.10573" lon="3.6243">
        <ele>143.37</ele>
        <time>2017-03-26T08:49:28Z</time>
      </trkpt>
      <trkpt lat="50.10573" lon="3.62431">
        <ele>144.34</ele>
        <time>2017-03-26T08:49:52Z</time>
      </trkpt>
      <trkpt lat="50.10572" lon="3.62434">
        <ele>144.34</ele>
        <time>2017-03-26T08:50:12Z</time>
      </trkpt>
      <trkpt lat="50.10573" lon="3.62433">
        <ele>144.34</ele>
        <time>2017-03-26T08:50:25Z</time>
      </trkpt>
      <trkpt lat="50.10567" lon="3.6244">
        <ele>144.34</ele>
        <time>2017-03-26T08:50:30Z</time>
      </trkpt>
      <trkpt lat="50.10566" lon="3.62442">
        <ele>144.34</ele>
        <time>2017-03-26T08:50:31Z</time>
      </trkpt>
      <trkpt lat="50.10564" lon="3.62444">
        <ele>144.34</ele>
        <time>2017-03-26T08:50:32Z</time>
      </trkpt>
      <trkpt lat="50.10532" lon="3.62482">
        <ele>144.34</ele>
        <time>2017-03-26T08:50:45Z</time>
      </trkpt>
      <trkpt lat="50.10474" lon="3.62546">
        <ele>145.78</ele>
        <time>2017-03-26T08:51:02Z</time>
      </trkpt>
      <trkpt lat="50.10441" lon="3.62584">
        <ele>146.26</ele>
        <time>2017-03-26T08:51:13Z</time>
      </trkpt>
      <trkpt lat="50.10407" lon="3.62619">
        <ele>146.74</ele>
        <time>2017-03-26T08:51:28Z</time>
      </trkpt>
      <trkpt lat="50.10368" lon="3.62662">
        <ele>147.22</ele>
        <time>2017-03-26T08:51:47Z</time>
      </trkpt>
      <trkpt lat="50.10349" lon="3.62685">
        <ele>146.26</ele>
        <time>2017-03-26T08:52:01Z</time>
      </trkpt>
      <trkpt lat="50.1035" lon="3.62686">
        <ele>146.26</ele>
        <time>2017-03-26T08:52:02Z</time>
      </trkpt>
      <trkpt lat="50.1035" lon="3.62687">
        <ele>146.26</ele>
        <time>2017-03-26T08:52:03Z</time>
      </trkpt>
      <trkpt lat="50.10352" lon="3.62687">
        <ele>146.26</ele>
        <time>2017-03-26T08:52:04Z</time>
      </trkpt>
      <trkpt lat="50.10354" lon="3.62688">
        <ele>145.78</ele>
        <time>2017-03-26T08:52:05Z</time>
      </trkpt>
      <trkpt lat="50.10356" lon="3.6269">
        <ele>146.26</ele>
        <time>2017-03-26T08:52:06Z</time>
      </trkpt>
      <trkpt lat="50.10357" lon="3.62691">
        <ele>145.78</ele>
        <time>2017-03-26T08:52:07Z</time>
      </trkpt>
      <trkpt lat="50.10374" lon="3.62724">
        <ele>147.7</ele>
        <time>2017-03-26T08:52:18Z</time>
      </trkpt>
      <trkpt lat="50.10397" lon="3.6277">
        <ele>148.66</ele>
        <time>2017-03-26T08:52:34Z</time>
      </trkpt>
      <trkpt lat="50.10422" lon="3.62821">
        <ele>148.66</ele>
        <time>2017-03-26T08:52:51Z</time>
      </trkpt>
      <trkpt lat="50.10439" lon="3.62858">
        <ele>147.22</ele>
        <time>2017-03-26T08:53:02Z</time>
      </trkpt>
      <trkpt lat="50.10469" lon="3.62917">
        <ele>146.26</ele>
        <time>2017-03-26T08:53:17Z</time>
      </trkpt>
      <trkpt lat="50.10499" lon="3.62971">
        <ele>145.78</ele>
        <time>2017-03-26T08:53:31Z</time>
      </trkpt>
      <trkpt lat="50.10533" lon="3.6303">
        <ele>145.78</ele>
        <time>2017-03-26T08:53:47Z</time>
      </trkpt>
      <trkpt lat="50.10563" lon="3.63083">
        <ele>145.3</ele>
        <time>2017-03-26T08:54:03Z</time>
      </trkpt>
      <trkpt lat="50.10589" lon="3.63132">
        <ele>145.3</ele>
        <time>2017-03-26T08:54:17Z</time>
      </trkpt>
      <trkpt lat="50.10607" lon="3.63165">
        <ele>145.3</ele>
        <time>2017-03-26T08:54:27Z</time>
      </trkpt>
      <trkpt lat="50.10608" lon="3.63169">
        <ele>145.3</ele>
        <time>2017-03-26T08:54:28Z</time>
      </trkpt>
      <trkpt lat="50.1061" lon="3.63172">
        <ele>145.3</ele>
        <time>2017-03-26T08:54:29Z</time>
      </trkpt>
      <trkpt lat="50.10638" lon="3.63223">
        <ele>145.3</ele>
        <time>2017-03-26T08:54:44Z</time>
      </trkpt>
      <trkpt lat="50.10663" lon="3.63265">
        <ele>145.3</ele>
        <time>2017-03-26T08:54:56Z</time>
      </trkpt>
      <trkpt lat="50.10669" lon="3.63275">
        <ele>145.3</ele>
        <time>2017-03-26T08:54:59Z</time>
      </trkpt>
      <trkpt lat="50.1067" lon="3.63278">
        <ele>145.3</ele>
        <time>2017-03-26T08:55:00Z</time>
      </trkpt>
      <trkpt lat="50.10672" lon="3.63282">
        <ele>145.3</ele>
        <time>2017-03-26T08:55:01Z</time>
      </trkpt>
      <trkpt lat="50.10701" lon="3.63334">
        <ele>144.82</ele>
        <time>2017-03-26T08:55:18Z</time>
      </trkpt>
      <trkpt lat="50.10728" lon="3.63384">
        <ele>143.85</ele>
        <time>2017-03-26T08:55:34Z</time>
      </trkpt>
      <trkpt lat="50.10749" lon="3.63422">
        <ele>142.41</ele>
        <time>2017-03-26T08:55:48Z</time>
      </trkpt>
      <trkpt lat="50.10771" lon="3.6346">
        <ele>140.49</ele>
        <time>2017-03-26T08:56:00Z</time>
      </trkpt>
      <trkpt lat="50.10793" lon="3.63496">
        <ele>140.01</ele>
        <time>2017-03-26T08:56:12Z</time>
      </trkpt>
      <trkpt lat="50.10831" lon="3.63559">
        <ele>138.09</ele>
        <time>2017-03-26T08:56:29Z</time>
      </trkpt>
      <trkpt lat="50.10839" lon="3.63572">
        <ele>137.61</ele>
        <time>2017-03-26T08:56:32Z</time>
      </trkpt>
      <trkpt lat="50.10868" lon="3.63628">
        <ele>137.13</ele>
        <time>2017-03-26T08:56:45Z</time>
      </trkpt>
      <trkpt lat="50.10903" lon="3.63694">
        <ele>137.13</ele>
        <time>2017-03-26T08:57:01Z</time>
      </trkpt>
      <trkpt lat="50.10929" lon="3.63746">
        <ele>138.09</ele>
        <time>2017-03-26T08:57:15Z</time>
      </trkpt>
      <trkpt lat="50.10952" lon="3.63797">
        <ele>140.01</ele>
        <time>2017-03-26T08:57:28Z</time>
      </trkpt>
      <trkpt lat="50.10961" lon="3.63822">
        <ele>141.45</ele>
        <time>2017-03-26T08:57:40Z</time>
      </trkpt>
      <trkpt lat="50.1096" lon="3.63826">
        <ele>141.93</ele>
        <time>2017-03-26T08:57:46Z</time>
      </trkpt>
      <trkpt lat="50.10941" lon="3.63833">
        <ele>141.93</ele>
        <time>2017-03-26T08:57:58Z</time>
      </trkpt>
      <trkpt lat="50.10919" lon="3.63838">
        <ele>140.01</ele>
        <time>2017-03-26T08:58:05Z</time>
      </trkpt>
      <trkpt lat="50.10907" lon="3.63844">
        <ele>139.53</ele>
        <time>2017-03-26T08:58:08Z</time>
      </trkpt>
      <trkpt lat="50.10902" lon="3.63847">
        <ele>138.57</ele>
        <time>2017-03-26T08:58:09Z</time>
      </trkpt>
      <trkpt lat="50.10893" lon="3.63852">
        <ele>138.09</ele>
        <time>2017-03-26T08:58:11Z</time>
      </trkpt>
      <trkpt lat="50.10888" lon="3.63855">
        <ele>138.09</ele>
        <time>2017-03-26T08:58:12Z</time>
      </trkpt>
      <trkpt lat="50.10883" lon="3.63858">
        <ele>137.61</ele>
        <time>2017-03-26T08:58:13Z</time>
      </trkpt>
      <trkpt lat="50.10878" lon="3.63861">
        <ele>137.61</ele>
        <time>2017-03-26T08:58:14Z</time>
      </trkpt>
      <trkpt lat="50.10873" lon="3.63864">
        <ele>137.13</ele>
        <time>2017-03-26T08:58:15Z</time>
      </trkpt>
      <trkpt lat="50.1084" lon="3.63879">
        <ele>136.16</ele>
        <time>2017-03-26T08:58:21Z</time>
      </trkpt>
      <trkpt lat="50.10836" lon="3.63884">
        <ele>136.16</ele>
        <time>2017-03-26T08:58:22Z</time>
      </trkpt>
      <trkpt lat="50.10834" lon="3.6389">
        <ele>136.16</ele>
        <time>2017-03-26T08:58:23Z</time>
      </trkpt>
      <trkpt lat="50.10833" lon="3.63899">
        <ele>136.16</ele>
        <time>2017-03-26T08:58:29Z</time>
      </trkpt>
      <trkpt lat="50.10835" lon="3.63902">
        <ele>136.16</ele>
        <time>2017-03-26T08:58:42Z</time>
      </trkpt>
      <trkpt lat="50.10835" lon="3.63904">
        <ele>136.16</ele>
        <time>2017-03-26T08:59:00Z</time>
      </trkpt>
      <trkpt lat="50.10836" lon="3.63905">
        <ele>136.16</ele>
        <time>2017-03-26T08:59:21Z</time>
      </trkpt>
      <trkpt lat="50.10831" lon="3.63926">
        <ele>136.16</ele>
        <time>2017-03-26T08:59:34Z</time>
      </trkpt>
      <trkpt lat="50.1083" lon="3.63932">
        <ele>136.16</ele>
        <time>2017-03-26T08:59:36Z</time>
      </trkpt>
      <trkpt lat="50.10821" lon="3.63975">
        <ele>135.68</ele>
        <time>2017-03-26T08:59:49Z</time>
      </trkpt>
      <trkpt lat="50.10817" lon="3.64016">
        <ele>135.68</ele>
        <time>2017-03-26T09:00:02Z</time>
      </trkpt>
      <trkpt lat="50.1081" lon="3.64052">
        <ele>135.68</ele>
        <time>2017-03-26T09:00:15Z</time>
      </trkpt>
      <trkpt lat="50.10803" lon="3.64105">
        <ele>135.68</ele>
        <time>2017-03-26T09:00:31Z</time>
      </trkpt>
      <trkpt lat="50.10803" lon="3.64154">
        <ele>135.68</ele>
        <time>2017-03-26T09:00:46Z</time>
      </trkpt>
      <trkpt lat="50.10809" lon="3.64203">
        <ele>135.68</ele>
        <time>2017-03-26T09:01:01Z</time>
      </trkpt>
      <trkpt lat="50.10817" lon="3.64253">
        <ele>135.68</ele>
        <time>2017-03-26T09:01:18Z</time>
      </trkpt>
      <trkpt lat="50.10825" lon="3.64297">
        <ele>135.68</ele>
        <time>2017-03-26T09:01:35Z</time>
      </trkpt>
      <trkpt lat="50.10811" lon="3.64292">
        <ele>135.68</ele>
        <time>2017-03-26T09:01:46Z</time>
      </trkpt>
      <trkpt lat="50.1079" lon="3.64291">
        <ele>135.68</ele>
        <time>2017-03-26T09:01:58Z</time>
      </trkpt>
      <trkpt lat="50.10769" lon="3.64287">
        <ele>136.64</ele>
        <time>2017-03-26T09:02:09Z</time>
      </trkpt>
      <trkpt lat="50.10766" lon="3.64283">
        <ele>136.64</ele>
        <time>2017-03-26T09:02:11Z</time>
      </trkpt>
      <trkpt lat="50.1076" lon="3.64277">
        <ele>136.64</ele>
        <time>2017-03-26T09:02:15Z</time>
      </trkpt>
      <trkpt lat="50.1076" lon="3.64277">
        <ele>136.64</ele>
        <time>2017-03-26T09:02:28Z</time>
      </trkpt>
      <trkpt lat="50.10761" lon="3.64279">
        <ele>136.64</ele>
        <time>2017-03-26T09:02:50Z</time>
      </trkpt>
      <trkpt lat="50.10759" lon="3.64278">
        <ele>136.64</ele>
        <time>2017-03-26T09:03:09Z</time>
      </trkpt>
      <trkpt lat="50.1076" lon="3.64277">
        <ele>136.64</ele>
        <time>2017-03-26T09:03:34Z</time>
      </trkpt>
      <trkpt lat="50.10758" lon="3.64278">
        <ele>136.64</ele>
        <time>2017-03-26T09:03:57Z</time>
      </trkpt>
      <trkpt lat="50.10759" lon="3.64278">
        <ele>136.16</ele>
        <time>2017-03-26T09:04:12Z</time>
      </trkpt>
      <trkpt lat="50.10759" lon="3.64278">
        <ele>136.16</ele>
        <time>2017-03-26T09:04:36Z</time>
      </trkpt>
      <trkpt lat="50.1076" lon="3.64278">
        <ele>136.16</ele>
        <time>2017-03-26T09:05:08Z</time>
      </trkpt>
      <trkpt lat="50.10759" lon="3.64278">
        <ele>136.16</ele>
        <time>2017-03-26T09:05:34Z</time>
      </trkpt>
      <trkpt lat="50.10761" lon="3.64278">
        <ele>136.16</ele>
        <time>2017-03-26T09:05:51Z</time>
      </trkpt>
      <trkpt lat="50.10761" lon="3.64281">
        <ele>136.16</ele>
        <time>2017-03-26T09:05:53Z</time>
      </trkpt>
      <trkpt lat="50.10759" lon="3.6429">
        <ele>136.16</ele>
        <time>2017-03-26T09:05:57Z</time>
      </trkpt>
      <trkpt lat="50.10752" lon="3.64342">
        <ele>136.16</ele>
        <time>2017-03-26T09:06:11Z</time>
      </trkpt>
      <trkpt lat="50.10738" lon="3.644">
        <ele>134.24</ele>
        <time>2017-03-26T09:06:25Z</time>
      </trkpt>
      <trkpt lat="50.10732" lon="3.64424">
        <ele>134.24</ele>
        <time>2017-03-26T09:06:32Z</time>
      </trkpt>
      <trkpt lat="50.10733" lon="3.64427">
        <ele>134.24</ele>
        <time>2017-03-26T09:06:33Z</time>
      </trkpt>
      <trkpt lat="50.10734" lon="3.6443">
        <ele>135.68</ele>
        <time>2017-03-26T09:06:34Z</time>
      </trkpt>
      <trkpt lat="50.10737" lon="3.64432">
        <ele>135.68</ele>
        <time>2017-03-26T09:06:35Z</time>
      </trkpt>
      <trkpt lat="50.10739" lon="3.64435">
        <ele>135.68</ele>
        <time>2017-03-26T09:06:36Z</time>
      </trkpt>
      <trkpt lat="50.10742" lon="3.64437">
        <ele>135.68</ele>
        <time>2017-03-26T09:06:37Z</time>
      </trkpt>
      <trkpt lat="50.10745" lon="3.64439">
        <ele>135.68</ele>
        <time>2017-03-26T09:06:38Z</time>
      </trkpt>
      <trkpt lat="50.10747" lon="3.64441">
        <ele>135.68</ele>
        <time>2017-03-26T09:06:39Z</time>
      </trkpt>
      <trkpt lat="50.10749" lon="3.64443">
        <ele>135.68</ele>
        <time>2017-03-26T09:06:40Z</time>
      </trkpt>
      <trkpt lat="50.10787" lon="3.64476">
        <ele>135.68</ele>
        <time>2017-03-26T09:06:56Z</time>
      </trkpt>
      <trkpt lat="50.10827" lon="3.64508">
        <ele>135.68</ele>
        <time>2017-03-26T09:07:10Z</time>
      </trkpt>
      <trkpt lat="50.10864" lon="3.64541">
        <ele>135.68</ele>
        <time>2017-03-26T09:07:26Z</time>
      </trkpt>
      <trkpt lat="50.10898" lon="3.64571">
        <ele>135.68</ele>
        <time>2017-03-26T09:07:43Z</time>
      </trkpt>
      <trkpt lat="50.10933" lon="3.64602">
        <ele>135.68</ele>
        <time>2017-03-26T09:07:59Z</time>
      </trkpt>
      <trkpt lat="50.1097" lon="3.64635">
        <ele>135.68</ele>
        <time>2017-03-26T09:08:17Z</time>
      </trkpt>
      <trkpt lat="50.11002" lon="3.64661">
        <ele>135.68</ele>
        <time>2017-03-26T09:08:32Z</time>
      </trkpt>
      <trkpt lat="50.11033" lon="3.64689">
        <ele>135.68</ele>
        <time>2017-03-26T09:08:48Z</time>
      </trkpt>
      <trkpt lat="50.1106" lon="3.64721">
        <ele>135.68</ele>
        <time>2017-03-26T09:09:02Z</time>
      </trkpt>
      <trkpt lat="50.11087" lon="3.64765">
        <ele>135.68</ele>
        <time>2017-03-26T09:09:18Z</time>
      </trkpt>
      <trkpt lat="50.11114" lon="3.6481">
        <ele>135.68</ele>
        <time>2017-03-26T09:09:36Z</time>
      </trkpt>
      <trkpt lat="50.11145" lon="3.6486">
        <ele>135.68</ele>
        <time>2017-03-26T09:09:54Z</time>
      </trkpt>
      <trkpt lat="50.11167" lon="3.64896">
        <ele>135.68</ele>
        <time>2017-03-26T09:10:09Z</time>
      </trkpt>
      <trkpt lat="50.11193" lon="3.64939">
        <ele>135.68</ele>
        <time>2017-03-26T09:10:26Z</time>
      </trkpt>
      <trkpt lat="50.11217" lon="3.64978">
        <ele>135.68</ele>
        <time>2017-03-26T09:10:40Z</time>
      </trkpt>
      <trkpt lat="50.11258" lon="3.65045">
        <ele>135.68</ele>
        <time>2017-03-26T09:10:57Z</time>
      </trkpt>
      <trkpt lat="50.1129" lon="3.65097">
        <ele>135.68</ele>
        <time>2017-03-26T09:11:09Z</time>
      </trkpt>
      <trkpt lat="50.11331" lon="3.65163">
        <ele>135.68</ele>
        <time>2017-03-26T09:11:24Z</time>
      </trkpt>
      <trkpt lat="50.1138" lon="3.6525">
        <ele>135.68</ele>
        <time>2017-03-26T09:11:43Z</time>
      </trkpt>
      <trkpt lat="50.11405" lon="3.65321">
        <ele>135.68</ele>
        <time>2017-03-26T09:11:58Z</time>
      </trkpt>
      <trkpt lat="50.11421" lon="3.65408">
        <ele>135.68</ele>
        <time>2017-03-26T09:12:15Z</time>
      </trkpt>
      <trkpt lat="50.11418" lon="3.65484">
        <ele>135.68</ele>
        <time>2017-03-26T09:12:31Z</time>
      </trkpt>
      <trkpt lat="50.11398" lon="3.65549">
        <ele>135.68</ele>
        <time>2017-03-26T09:12:45Z</time>
      </trkpt>
      <trkpt lat="50.11367" lon="3.65611">
        <ele>135.68</ele>
        <time>2017-03-26T09:12:59Z</time>
      </trkpt>
      <trkpt lat="50.11338" lon="3.65673">
        <ele>135.68</ele>
        <time>2017-03-26T09:13:13Z</time>
      </trkpt>
      <trkpt lat="50.11311" lon="3.65728">
        <ele>135.68</ele>
        <time>2017-03-26T09:13:25Z</time>
      </trkpt>
      <trkpt lat="50.11288" lon="3.65778">
        <ele>135.68</ele>
        <time>2017-03-26T09:13:39Z</time>
      </trkpt>
      <trkpt lat="50.11258" lon="3.6584">
        <ele>136.16</ele>
        <time>2017-03-26T09:13:59Z</time>
      </trkpt>
      <trkpt lat="50.11237" lon="3.65883">
        <ele>136.16</ele>
        <time>2017-03-26T09:14:14Z</time>
      </trkpt>
      <trkpt lat="50.11218" lon="3.65923">
        <ele>136.16</ele>
        <time>2017-03-26T09:14:28Z</time>
      </trkpt>
      <trkpt lat="50.11198" lon="3.65963">
        <ele>136.16</ele>
        <time>2017-03-26T09:14:43Z</time>
      </trkpt>
      <trkpt lat="50.1117" lon="3.66021">
        <ele>136.16</ele>
        <time>2017-03-26T09:14:59Z</time>
      </trkpt>
      <trkpt lat="50.11148" lon="3.66065">
        <ele>136.16</ele>
        <time>2017-03-26T09:15:13Z</time>
      </trkpt>
      <trkpt lat="50.11129" lon="3.66104">
        <ele>136.16</ele>
        <time>2017-03-26T09:15:27Z</time>
      </trkpt>
      <trkpt lat="50.11111" lon="3.66141">
        <ele>136.16</ele>
        <time>2017-03-26T09:15:42Z</time>
      </trkpt>
      <trkpt lat="50.11095" lon="3.66177">
        <ele>135.2</ele>
        <time>2017-03-26T09:15:56Z</time>
      </trkpt>
      <trkpt lat="50.11081" lon="3.66236">
        <ele>135.2</ele>
        <time>2017-03-26T09:16:13Z</time>
      </trkpt>
      <trkpt lat="50.11078" lon="3.66292">
        <ele>135.2</ele>
        <time>2017-03-26T09:16:25Z</time>
      </trkpt>
      <trkpt lat="50.11084" lon="3.66349">
        <ele>135.2</ele>
        <time>2017-03-26T09:16:40Z</time>
      </trkpt>
      <trkpt lat="50.11101" lon="3.664">
        <ele>134.72</ele>
        <time>2017-03-26T09:16:55Z</time>
      </trkpt>
      <trkpt lat="50.11121" lon="3.66448">
        <ele>134.72</ele>
        <time>2017-03-26T09:17:09Z</time>
      </trkpt>
      <trkpt lat="50.1115" lon="3.66518">
        <ele>134.72</ele>
        <time>2017-03-26T09:17:28Z</time>
      </trkpt>
      <trkpt lat="50.11171" lon="3.66575">
        <ele>134.72</ele>
        <time>2017-03-26T09:17:45Z</time>
      </trkpt>
      <trkpt lat="50.11192" lon="3.6663">
        <ele>134.72</ele>
        <time>2017-03-26T09:17:56Z</time>
      </trkpt>
      <trkpt lat="50.11222" lon="3.66706">
        <ele>134.72</ele>
        <time>2017-03-26T09:18:14Z</time>
      </trkpt>
      <trkpt lat="50.11245" lon="3.6676">
        <ele>134.72</ele>
        <time>2017-03-26T09:18:27Z</time>
      </trkpt>
      <trkpt lat="50.11245" lon="3.66764">
        <ele>134.72</ele>
        <time>2017-03-26T09:18:29Z</time>
      </trkpt>
      <trkpt lat="50.11247" lon="3.66766">
        <ele>134.72</ele>
        <time>2017-03-26T09:18:30Z</time>
      </trkpt>
      <trkpt lat="50.11249" lon="3.66769">
        <ele>134.72</ele>
        <time>2017-03-26T09:18:31Z</time>
      </trkpt>
      <trkpt lat="50.1125" lon="3.66772">
        <ele>134.72</ele>
        <time>2017-03-26T09:18:32Z</time>
      </trkpt>
      <trkpt lat="50.11251" lon="3.66776">
        <ele>134.72</ele>
        <time>2017-03-26T09:18:33Z</time>
      </trkpt>
      <trkpt lat="50.11255" lon="3.66784">
        <ele>134.72</ele>
        <time>2017-03-26T09:18:37Z</time>
      </trkpt>
      <trkpt lat="50.11255" lon="3.66786">
        <ele>134.72</ele>
        <time>2017-03-26T09:18:38Z</time>
      </trkpt>
      <trkpt lat="50.11255" lon="3.66786">
        <ele>134.72</ele>
        <time>2017-03-26T09:18:54Z</time>
      </trkpt>
      <trkpt lat="50.11256" lon="3.66787">
        <ele>134.72</ele>
        <time>2017-03-26T09:19:22Z</time>
      </trkpt>
      <trkpt lat="50.11258" lon="3.66789">
        <ele>134.72</ele>
        <time>2017-03-26T09:19:37Z</time>
      </trkpt>
      <trkpt lat="50.11259" lon="3.66791">
        <ele>134.72</ele>
        <time>2017-03-26T09:19:38Z</time>
      </trkpt>
      <trkpt lat="50.11262" lon="3.668">
        <ele>134.72</ele>
        <time>2017-03-26T09:19:46Z</time>
      </trkpt>
      <trkpt lat="50.11263" lon="3.66802">
        <ele>134.72</ele>
        <time>2017-03-26T09:19:47Z</time>
      </trkpt>
      <trkpt lat="50.11289" lon="3.66853">
        <ele>134.72</ele>
        <time>2017-03-26T09:20:02Z</time>
      </trkpt>
      <trkpt lat="50.11326" lon="3.66908">
        <ele>134.72</ele>
        <time>2017-03-26T09:20:20Z</time>
      </trkpt>
      <trkpt lat="50.11356" lon="3.66949">
        <ele>134.72</ele>
        <time>2017-03-26T09:20:35Z</time>
      </trkpt>
      <trkpt lat="50.11389" lon="3.66995">
        <ele>134.72</ele>
        <time>2017-03-26T09:20:52Z</time>
      </trkpt>
      <trkpt lat="50.11422" lon="3.6704">
        <ele>134.24</ele>
        <time>2017-03-26T09:21:09Z</time>
      </trkpt>
      <trkpt lat="50.1145" lon="3.67081">
        <ele>134.24</ele>
        <time>2017-03-26T09:21:25Z</time>
      </trkpt>
      <trkpt lat="50.11488" lon="3.67129">
        <ele>134.24</ele>
        <time>2017-03-26T09:21:43Z</time>
      </trkpt>
      <trkpt lat="50.11518" lon="3.6717">
        <ele>134.24</ele>
        <time>2017-03-26T09:21:59Z</time>
      </trkpt>
      <trkpt lat="50.11542" lon="3.67203">
        <ele>134.24</ele>
        <time>2017-03-26T09:22:13Z</time>
      </trkpt>
      <trkpt lat="50.11565" lon="3.67235">
        <ele>134.24</ele>
        <time>2017-03-26T09:22:27Z</time>
      </trkpt>
      <trkpt lat="50.11593" lon="3.67274">
        <ele>134.24</ele>
        <time>2017-03-26T09:22:43Z</time>
      </trkpt>
      <trkpt lat="50.11622" lon="3.67312">
        <ele>134.24</ele>
        <time>2017-03-26T09:23:00Z</time>
      </trkpt>
      <trkpt lat="50.1164" lon="3.67337">
        <ele>134.24</ele>
        <time>2017-03-26T09:23:12Z</time>
      </trkpt>
      <trkpt lat="50.11666" lon="3.67374">
        <ele>134.24</ele>
        <time>2017-03-26T09:23:26Z</time>
      </trkpt>
      <trkpt lat="50.11708" lon="3.6743">
        <ele>133.76</ele>
        <time>2017-03-26T09:23:42Z</time>
      </trkpt>
      <trkpt lat="50.11747" lon="3.67483">
        <ele>133.76</ele>
        <time>2017-03-26T09:23:58Z</time>
      </trkpt>
      <trkpt lat="50.11785" lon="3.67534">
        <ele>133.76</ele>
        <time>2017-03-26T09:24:14Z</time>
      </trkpt>
      <trkpt lat="50.11814" lon="3.67575">
        <ele>133.76</ele>
        <time>2017-03-26T09:24:26Z</time>
      </trkpt>
      <trkpt lat="50.11845" lon="3.67617">
        <ele>133.76</ele>
        <time>2017-03-26T09:24:39Z</time>
      </trkpt>
      <trkpt lat="50.11878" lon="3.6766">
        <ele>133.76</ele>
        <time>2017-03-26T09:24:54Z</time>
      </trkpt>
      <trkpt lat="50.11914" lon="3.67708">
        <ele>133.76</ele>
        <time>2017-03-26T09:25:13Z</time>
      </trkpt>
      <trkpt lat="50.11938" lon="3.67742">
        <ele>133.76</ele>
        <time>2017-03-26T09:25:28Z</time>
      </trkpt>
      <trkpt lat="50.11962" lon="3.67774">
        <ele>133.76</ele>
        <time>2017-03-26T09:25:42Z</time>
      </trkpt>
      <trkpt lat="50.11973" lon="3.6779">
        <ele>134.72</ele>
        <time>2017-03-26T09:25:50Z</time>
      </trkpt>
      <trkpt lat="50.11994" lon="3.67818">
        <ele>134.72</ele>
        <time>2017-03-26T09:26:04Z</time>
      </trkpt>
      <trkpt lat="50.12006" lon="3.67834">
        <ele>134.72</ele>
        <time>2017-03-26T09:26:16Z</time>
      </trkpt>
      <trkpt lat="50.12012" lon="3.67844">
        <ele>134.72</ele>
        <time>2017-03-26T09:26:25Z</time>
      </trkpt>
      <trkpt lat="50.12013" lon="3.67846">
        <ele>134.72</ele>
        <time>2017-03-26T09:26:26Z</time>
      </trkpt>
      <trkpt lat="50.12014" lon="3.67847">
        <ele>134.72</ele>
        <time>2017-03-26T09:26:27Z</time>
      </trkpt>
      <trkpt lat="50.12015" lon="3.67848">
        <ele>134.72</ele>
        <time>2017-03-26T09:26:28Z</time>
      </trkpt>
      <trkpt lat="50.12016" lon="3.6785">
        <ele>134.72</ele>
        <time>2017-03-26T09:26:29Z</time>
      </trkpt>
      <trkpt lat="50.12017" lon="3.67851">
        <ele>134.72</ele>
        <time>2017-03-26T09:26:30Z</time>
      </trkpt>
      <trkpt lat="50.12019" lon="3.67853">
        <ele>134.72</ele>
        <time>2017-03-26T09:26:31Z</time>
      </trkpt>
      <trkpt lat="50.1202" lon="3.67854">
        <ele>134.72</ele>
        <time>2017-03-26T09:26:32Z</time>
      </trkpt>
      <trkpt lat="50.1202" lon="3.67855">
        <ele>134.72</ele>
        <time>2017-03-26T09:26:45Z</time>
      </trkpt>
      <trkpt lat="50.12031" lon="3.67868">
        <ele>134.72</ele>
        <time>2017-03-26T09:27:02Z</time>
      </trkpt>
      <trkpt lat="50.12058" lon="3.67904">
        <ele>134.72</ele>
        <time>2017-03-26T09:27:18Z</time>
      </trkpt>
      <trkpt lat="50.12085" lon="3.67942">
        <ele>134.72</ele>
        <time>2017-03-26T09:27:32Z</time>
      </trkpt>
      <trkpt lat="50.12119" lon="3.67984">
        <ele>135.2</ele>
        <time>2017-03-26T09:27:46Z</time>
      </trkpt>
      <trkpt lat="50.1215" lon="3.68025">
        <ele>135.2</ele>
        <time>2017-03-26T09:28:03Z</time>
      </trkpt>
      <trkpt lat="50.1218" lon="3.68065">
        <ele>135.2</ele>
        <time>2017-03-26T09:28:19Z</time>
      </trkpt>
      <trkpt lat="50.12206" lon="3.68103">
        <ele>135.2</ele>
        <time>2017-03-26T09:28:30Z</time>
      </trkpt>
      <trkpt lat="50.12243" lon="3.68153">
        <ele>135.2</ele>
        <time>2017-03-26T09:28:44Z</time>
      </trkpt>
      <trkpt lat="50.12288" lon="3.68214">
        <ele>135.2</ele>
        <time>2017-03-26T09:29:04Z</time>
      </trkpt>
      <trkpt lat="50.1229" lon="3.68216">
        <ele>135.2</ele>
        <time>2017-03-26T09:29:05Z</time>
      </trkpt>
      <trkpt lat="50.12291" lon="3.68216">
        <ele>135.2</ele>
        <time>2017-03-26T09:29:06Z</time>
      </trkpt>
      <trkpt lat="50.12292" lon="3.68215">
        <ele>135.2</ele>
        <time>2017-03-26T09:29:07Z</time>
      </trkpt>
      <trkpt lat="50.12296" lon="3.68205">
        <ele>133.76</ele>
        <time>2017-03-26T09:29:10Z</time>
      </trkpt>
      <trkpt lat="50.12298" lon="3.68197">
        <ele>133.76</ele>
        <time>2017-03-26T09:29:19Z</time>
      </trkpt>
      <trkpt lat="50.12301" lon="3.68176">
        <ele>133.76</ele>
        <time>2017-03-26T09:29:34Z</time>
      </trkpt>
      <trkpt lat="50.1231" lon="3.68137">
        <ele>133.76</ele>
        <time>2017-03-26T09:29:47Z</time>
      </trkpt>
      <trkpt lat="50.12319" lon="3.68095">
        <ele>133.76</ele>
        <time>2017-03-26T09:30:01Z</time>
      </trkpt>
      <trkpt lat="50.12327" lon="3.68056">
        <ele>133.76</ele>
        <time>2017-03-26T09:30:14Z</time>
      </trkpt>
      <trkpt lat="50.12335" lon="3.68018">
        <ele>133.76</ele>
        <time>2017-03-26T09:30:26Z</time>
      </trkpt>
      <trkpt lat="50.12339" lon="3.67967">
        <ele>133.76</ele>
        <time>2017-03-26T09:30:40Z</time>
      </trkpt>
      <trkpt lat="50.1233" lon="3.67932">
        <ele>133.76</ele>
        <time>2017-03-26T09:30:51Z</time>
      </trkpt>
      <trkpt lat="50.1233" lon="3.67929">
        <ele>133.76</ele>
        <time>2017-03-26T09:30:52Z</time>
      </trkpt>
      <trkpt lat="50.12361" lon="3.67898">
        <ele>133.76</ele>
        <time>2017-03-26T09:31:08Z</time>
      </trkpt>
      <trkpt lat="50.12393" lon="3.67864">
        <ele>133.28</ele>
        <time>2017-03-26T09:31:23Z</time>
      </trkpt>
      <trkpt lat="50.12415" lon="3.67839">
        <ele>133.28</ele>
        <time>2017-03-26T09:31:35Z</time>
      </trkpt>
      <trkpt lat="50.12442" lon="3.67814">
        <ele>133.28</ele>
        <time>2017-03-26T09:31:51Z</time>
      </trkpt>
      <trkpt lat="50.12473" lon="3.67803">
        <ele>133.28</ele>
        <time>2017-03-26T09:32:07Z</time>
      </trkpt>
      <trkpt lat="50.12475" lon="3.67806">
        <ele>133.28</ele>
        <time>2017-03-26T09:32:08Z</time>
      </trkpt>
      <trkpt lat="50.12476" lon="3.67809">
        <ele>133.28</ele>
        <time>2017-03-26T09:32:09Z</time>
      </trkpt>
      <trkpt lat="50.12476" lon="3.67812">
        <ele>133.28</ele>
        <time>2017-03-26T09:32:10Z</time>
      </trkpt>
      <trkpt lat="50.12475" lon="3.67815">
        <ele>133.28</ele>
        <time>2017-03-26T09:32:11Z</time>
      </trkpt>
      <trkpt lat="50.1247" lon="3.67817">
        <ele>133.28</ele>
        <time>2017-03-26T09:32:13Z</time>
      </trkpt>
      <trkpt lat="50.12454" lon="3.67816">
        <ele>132.8</ele>
        <time>2017-03-26T09:32:23Z</time>
      </trkpt>
      <trkpt lat="50.12453" lon="3.67815">
        <ele>134.24</ele>
        <time>2017-03-26T09:32:36Z</time>
      </trkpt>
      <trkpt lat="50.12453" lon="3.67816">
        <ele>134.24</ele>
        <time>2017-03-26T09:32:37Z</time>
      </trkpt>
      <trkpt lat="50.12453" lon="3.67816">
        <ele>132.8</ele>
        <time>2017-03-26T09:32:39Z</time>
      </trkpt>
      <trkpt lat="50.12455" lon="3.67817">
        <ele>132.8</ele>
        <time>2017-03-26T09:32:50Z</time>
      </trkpt>
      <trkpt lat="50.12453" lon="3.67817">
        <ele>132.8</ele>
        <time>2017-03-26T09:33:06Z</time>
      </trkpt>
      <trkpt lat="50.12454" lon="3.67817">
        <ele>132.8</ele>
        <time>2017-03-26T09:33:14Z</time>
      </trkpt>
      <trkpt lat="50.12454" lon="3.67818">
        <ele>132.8</ele>
        <time>2017-03-26T09:33:24Z</time>
      </trkpt>
      <trkpt lat="50.12457" lon="3.67821">
        <ele>132.8</ele>
        <time>2017-03-26T09:33:27Z</time>
      </trkpt>
      <trkpt lat="50.12459" lon="3.67822">
        <ele>134.24</ele>
        <time>2017-03-26T09:33:35Z</time>
      </trkpt>
    </trkseg>
  </trk>
</gpx>